<?xml version="1.0" encoding="UTF-8" standalone="no" ?><gpx xmlns="http://www.topografix.com/GPX/1/1" xmlns:gpxx="http://www.garmin.com/xmlschemas/GpxExtensions/v3" xmlns:wptx1="http://www.garmin.com/xmlschemas/WaypointExtension/v1" xmlns:gpxtpx="http://www.garmin.com/xmlschemas/TrackPointExtension/v1" creator="GuideVTT.com" version="1.1" xmlns:xsi="http://www.w3.org/2001/XMLSchema-instance" xsi:schemaLocation="http://www.topografix.com/GPX/1/1 http://www.topografix.com/GPX/1/1/gpx.xsd http://www.garmin.com/xmlschemas/GpxExtensions/v3 http://www8.garmin.com/xmlschemas/GpxExtensionsv3.xsd http://www.garmin.com/xmlschemas/WaypointExtension/v1 http://www8.garmin.com/xmlschemas/WaypointExtensionv1.xsd http://www.garmin.com/xmlschemas/TrackPointExtension/v1 http://www.garmin.com/xmlschemas/TrackPointExtensionv1.xsd">
<metadata><link href="http://www.garmin.com"><text>Garmin International</text></link><time>2013-06-22T15:13:50Z</time></metadata>
<trk><name>2013-08-17_1429__20130817_1429.gpx</name><extensions><gpxx:TrackExtension><gpxx:DisplayColor>Cyan</gpxx:DisplayColor></gpxx:TrackExtension></extensions><trkseg>
<trkpt lat="45.38530460558832" lon="4.724597604945302"><ele></ele><time>2013-8-23T0:44:43Z</time></trkpt>
<trkpt lat="45.38532266858965" lon="4.724859371781349"><ele></ele><time>2013-8-23T0:44:46Z</time></trkpt>
<trkpt lat="45.38529463112354" lon="4.725119210779667"><ele></ele><time>2013-8-23T0:44:49Z</time></trkpt>
<trkpt lat="45.38522300776094" lon="4.724850319325924"><ele></ele><time>2013-8-23T0:44:52Z</time></trkpt>
<trkpt lat="45.38519220426679" lon="4.724555108696222"><ele></ele><time>2013-8-23T0:44:55Z</time></trkpt>
<trkpt lat="45.38524207659066" lon="4.724286887794733"><ele></ele><time>2013-8-23T0:44:58Z</time></trkpt>
<trkpt lat="45.38527422118932" lon="4.724011458456516"><ele></ele><time>2013-8-23T0:45:1Z</time></trkpt>
<trkpt lat="45.38532128557563" lon="4.723764443770051"><ele></ele><time>2013-8-23T0:45:4Z</time></trkpt>
<trkpt lat="45.38534810766578" lon="4.72349856980145"><ele></ele><time>2013-8-23T0:45:7Z</time></trkpt>
<trkpt lat="45.38535485509783" lon="4.7232171054929495"><ele></ele><time>2013-8-23T0:45:10Z</time></trkpt>
<trkpt lat="45.38534412626177" lon="4.722949303686619"><ele></ele><time>2013-8-23T0:45:13Z</time></trkpt>
<trkpt lat="45.3853545198217" lon="4.722688207402825"><ele></ele><time>2013-8-23T0:45:16Z</time></trkpt>
<trkpt lat="45.38531378377229" lon="4.722417052835226"><ele></ele><time>2013-8-23T0:45:19Z</time></trkpt>
<trkpt lat="45.38525703828782" lon="4.722160063683987"><ele></ele><time>2013-8-23T0:45:22Z</time></trkpt>
<trkpt lat="45.385200628079474" lon="4.721891339868307"><ele></ele><time>2013-8-23T0:45:25Z</time></trkpt>
<trkpt lat="45.38516559172422" lon="4.721636949107051"><ele></ele><time>2013-8-23T0:45:28Z</time></trkpt>
<trkpt lat="45.385128795169294" lon="4.721365459263325"><ele></ele><time>2013-8-23T0:45:31Z</time></trkpt>
<trkpt lat="45.385169447399676" lon="4.721101261675358"><ele></ele><time>2013-8-23T0:45:34Z</time></trkpt>
<trkpt lat="45.38520812988281" lon="4.720843182876706"><ele></ele><time>2013-8-23T0:45:37Z</time></trkpt>
<trkpt lat="45.38524450734258" lon="4.7205800749361515"><ele></ele><time>2013-8-23T0:45:40Z</time></trkpt>
<trkpt lat="45.385235915891826" lon="4.720304310321808"><ele></ele><time>2013-8-23T0:45:43Z</time></trkpt>
<trkpt lat="45.38526189979166" lon="4.720047153532505"><ele></ele><time>2013-8-23T0:45:46Z</time></trkpt>
<trkpt lat="45.38530150428414" lon="4.719787230715156"><ele></ele><time>2013-8-23T0:45:49Z</time></trkpt>
<trkpt lat="45.38527799304575" lon="4.71953040920198"><ele></ele><time>2013-8-23T0:45:52Z</time></trkpt>
<trkpt lat="45.38535162806511" lon="4.719285070896149"><ele></ele><time>2013-8-23T0:45:55Z</time></trkpt>
<trkpt lat="45.38542761001736" lon="4.719027411192656"><ele></ele><time>2013-8-23T0:45:58Z</time></trkpt>
<trkpt lat="45.38550598081201" lon="4.718770086765289"><ele></ele><time>2013-8-23T0:46:1Z</time></trkpt>
<trkpt lat="45.3855965891853" lon="4.718525921925902"><ele></ele><time>2013-8-23T0:46:4Z</time></trkpt>
<trkpt lat="45.38569256197661" lon="4.718259545043111"><ele></ele><time>2013-8-23T0:46:7Z</time></trkpt>
<trkpt lat="45.38565635215491" lon="4.718003813177347"><ele></ele><time>2013-8-23T0:46:10Z</time></trkpt>
<trkpt lat="45.38559080567211" lon="4.717719415202737"><ele></ele><time>2013-8-23T0:46:13Z</time></trkpt>
<trkpt lat="45.38553556893021" lon="4.717457480728626"><ele></ele><time>2013-8-23T0:46:16Z</time></trkpt>
<trkpt lat="45.3854626044631" lon="4.717207280918956"><ele></ele><time>2013-8-23T0:46:19Z</time></trkpt>
<trkpt lat="45.3854937851429" lon="4.716944172978401"><ele></ele><time>2013-8-23T0:46:22Z</time></trkpt>
<trkpt lat="45.385488756000996" lon="4.716655919328332"><ele></ele><time>2013-8-23T0:46:25Z</time></trkpt>
<trkpt lat="45.38557022809982" lon="4.716400522738695"><ele></ele><time>2013-8-23T0:46:28Z</time></trkpt>
<trkpt lat="45.38567789364606" lon="4.716162979602814"><ele></ele><time>2013-8-23T0:46:31Z</time></trkpt>
<trkpt lat="45.3857060149312" lon="4.715891573578119"><ele></ele><time>2013-8-23T0:46:34Z</time></trkpt>
<trkpt lat="45.38577105849981" lon="4.715615641325712"><ele></ele><time>2013-8-23T0:46:37Z</time></trkpt>
<trkpt lat="45.385862798430026" lon="4.7153575625270605"><ele></ele><time>2013-8-23T0:46:40Z</time></trkpt>
<trkpt lat="45.38585923612118" lon="4.715059250593185"><ele></ele><time>2013-8-23T0:46:43Z</time></trkpt>
<trkpt lat="45.38584251422435" lon="4.714783066883683"><ele></ele><time>2013-8-23T0:46:46Z</time></trkpt>
<trkpt lat="45.38590546231717" lon="4.714525071904063"><ele></ele><time>2013-8-23T0:46:49Z</time></trkpt>
<trkpt lat="45.38592872209847" lon="4.714236315339804"><ele></ele><time>2013-8-23T0:46:52Z</time></trkpt>
<trkpt lat="45.38590676151216" lon="4.713939595967531"><ele></ele><time>2013-8-23T0:46:55Z</time></trkpt>
<trkpt lat="45.385893979109824" lon="4.713668106123805"><ele></ele><time>2013-8-23T0:46:58Z</time></trkpt>
<trkpt lat="45.385908521711826" lon="4.713405249640346"><ele></ele><time>2013-8-23T0:47:1Z</time></trkpt>
<trkpt lat="45.385927464812994" lon="4.713090928271413"><ele></ele><time>2013-8-23T0:47:4Z</time></trkpt>
<trkpt lat="45.38596577011049" lon="4.712821450084448"><ele></ele><time>2013-8-23T0:47:7Z</time></trkpt>
<trkpt lat="45.38601601962" lon="4.712564377114177"><ele></ele><time>2013-8-23T0:47:10Z</time></trkpt>
<trkpt lat="45.3859583940357" lon="4.712315099313855"><ele></ele><time>2013-8-23T0:47:13Z</time></trkpt>
<trkpt lat="45.385859361849725" lon="4.712063474580646"><ele></ele><time>2013-8-23T0:47:16Z</time></trkpt>
<trkpt lat="45.38584808818996" lon="4.711795337498188"><ele></ele><time>2013-8-23T0:47:19Z</time></trkpt>
<trkpt lat="45.38588672876358" lon="4.7115392703562975"><ele></ele><time>2013-8-23T0:47:22Z</time></trkpt>
<trkpt lat="45.38597444538027" lon="4.711275659501553"><ele></ele><time>2013-8-23T0:47:25Z</time></trkpt>
<trkpt lat="45.38588522002101" lon="4.711033338680863"><ele></ele><time>2013-8-23T0:47:28Z</time></trkpt>
<trkpt lat="45.38595948368311" lon="4.710783809423447"><ele></ele><time>2013-8-23T0:47:31Z</time></trkpt>
<trkpt lat="45.38606396410614" lon="4.710541572421789"><ele></ele><time>2013-8-23T0:47:34Z</time></trkpt>
<trkpt lat="45.38618835154921" lon="4.71033881418407"><ele></ele><time>2013-8-23T0:47:37Z</time></trkpt>
<trkpt lat="45.38632887415588" lon="4.710128847509623"><ele></ele><time>2013-8-23T0:47:40Z</time></trkpt>
<trkpt lat="45.38642124272883" lon="4.709880407899618"><ele></ele><time>2013-8-23T0:47:43Z</time></trkpt>
<trkpt lat="45.38652404677123" lon="4.709632471203804"><ele></ele><time>2013-8-23T0:47:46Z</time></trkpt>
<trkpt lat="45.38657257799059" lon="4.709344720467925"><ele></ele><time>2013-8-23T0:47:49Z</time></trkpt>
<trkpt lat="45.38662437815219" lon="4.7090966161340475"><ele></ele><time>2013-8-23T0:47:52Z</time></trkpt>
<trkpt lat="45.38674013223499" lon="4.708876172080636"><ele></ele><time>2013-8-23T0:47:55Z</time></trkpt>
<trkpt lat="45.38674507755786" lon="4.708590684458613"><ele></ele><time>2013-8-23T0:47:58Z</time></trkpt>
<trkpt lat="45.386766786687076" lon="4.708317182958126"><ele></ele><time>2013-8-23T0:48:1Z</time></trkpt>
<trkpt lat="45.386818000115454" lon="4.7080667316913605"><ele></ele><time>2013-8-23T0:48:4Z</time></trkpt>
<trkpt lat="45.386939286254346" lon="4.707859866321087"><ele></ele><time>2013-8-23T0:48:7Z</time></trkpt>
<trkpt lat="45.38701744750142" lon="4.707588125020266"><ele></ele><time>2013-8-23T0:48:10Z</time></trkpt>
<trkpt lat="45.38713827263564" lon="4.707373632118106"><ele></ele><time>2013-8-23T0:48:13Z</time></trkpt>
<trkpt lat="45.387143888510764" lon="4.707088563591242"><ele></ele><time>2013-8-23T0:48:16Z</time></trkpt>
<trkpt lat="45.387246776372194" lon="4.706875998526812"><ele></ele><time>2013-8-23T0:48:19Z</time></trkpt>
<trkpt lat="45.38742258679122" lon="4.706668965518475"><ele></ele><time>2013-8-23T0:48:22Z</time></trkpt>
<trkpt lat="45.38758779410273" lon="4.706555726006627"><ele></ele><time>2013-8-23T0:48:25Z</time></trkpt>
<trkpt lat="45.38756968919188" lon="4.7062998265028"><ele></ele><time>2013-8-23T0:48:28Z</time></trkpt>
<trkpt lat="45.387623249553144" lon="4.70603303052485"><ele></ele><time>2013-8-23T0:48:31Z</time></trkpt>
<trkpt lat="45.38769797421992" lon="4.705779394134879"><ele></ele><time>2013-8-23T0:48:34Z</time></trkpt>
<trkpt lat="45.38780421484262" lon="4.705555429682136"><ele></ele><time>2013-8-23T0:48:37Z</time></trkpt>
<trkpt lat="45.38783950265497" lon="4.705295423045754"><ele></ele><time>2013-8-23T0:48:40Z</time></trkpt>
<trkpt lat="45.38790152873844" lon="4.705051342025399"><ele></ele><time>2013-8-23T0:48:43Z</time></trkpt>
<trkpt lat="45.388004248961806" lon="4.704823102802038"><ele></ele><time>2013-8-23T0:48:46Z</time></trkpt>
<trkpt lat="45.38794884458184" lon="4.704575166106224"><ele></ele><time>2013-8-23T0:48:49Z</time></trkpt>
<trkpt lat="45.387956514023244" lon="4.704311052337289"><ele></ele><time>2013-8-23T0:48:52Z</time></trkpt>
<trkpt lat="45.387826301157475" lon="4.704126734286547"><ele></ele><time>2013-8-23T0:48:55Z</time></trkpt>
<trkpt lat="45.387692735530436" lon="4.703937387093902"><ele></ele><time>2013-8-23T0:48:58Z</time></trkpt>
<trkpt lat="45.38763967808336" lon="4.703691462054849"><ele></ele><time>2013-8-23T0:49:1Z</time></trkpt>
<trkpt lat="45.38750573527068" lon="4.703506221994758"><ele></ele><time>2013-8-23T0:49:4Z</time></trkpt>
<trkpt lat="45.38737271446735" lon="4.703330118209124"><ele></ele><time>2013-8-23T0:49:7Z</time></trkpt>
<trkpt lat="45.38721324875951" lon="4.703182429075241"><ele></ele><time>2013-8-23T0:49:10Z</time></trkpt>
<trkpt lat="45.38707888685167" lon="4.7029779106378555"><ele></ele><time>2013-8-23T0:49:13Z</time></trkpt>
<trkpt lat="45.387000013142824" lon="4.702737769111991"><ele></ele><time>2013-8-23T0:49:16Z</time></trkpt>
<trkpt lat="45.3868778469041" lon="4.702518247067928"><ele></ele><time>2013-8-23T0:49:19Z</time></trkpt>
<trkpt lat="45.38676309864968" lon="4.702310040593147"><ele></ele><time>2013-8-23T0:49:22Z</time></trkpt>
<trkpt lat="45.38667093962431" lon="4.7020678874105215"><ele></ele><time>2013-8-23T0:49:25Z</time></trkpt>
<trkpt lat="45.38649835623801" lon="4.701940314844251"><ele></ele><time>2013-8-23T0:49:28Z</time></trkpt>
<trkpt lat="45.38632715586573" lon="4.701846605166793"><ele></ele><time>2013-8-23T0:49:31Z</time></trkpt>
<trkpt lat="45.386142334900796" lon="4.70173018053174"><ele></ele><time>2013-8-23T0:49:34Z</time></trkpt>
<trkpt lat="45.385969835333526" lon="4.701588526368141"><ele></ele><time>2013-8-23T0:49:37Z</time></trkpt>
<trkpt lat="45.385820930823684" lon="4.701423738151789"><ele></ele><time>2013-8-23T0:49:40Z</time></trkpt>
<trkpt lat="45.38567575626075" lon="4.7012650687247515"><ele></ele><time>2013-8-23T0:49:43Z</time></trkpt>
<trkpt lat="45.38556218147278" lon="4.701058454811573"><ele></ele><time>2013-8-23T0:49:46Z</time></trkpt>
<trkpt lat="45.38561951369047" lon="4.700813787057996"><ele></ele><time>2013-8-23T0:49:49Z</time></trkpt>
<trkpt lat="45.38567064329982" lon="4.7005545347929"><ele></ele><time>2013-8-23T0:49:52Z</time></trkpt>
<trkpt lat="45.38572437129915" lon="4.7002967074513435"><ele></ele><time>2013-8-23T0:49:55Z</time></trkpt>
<trkpt lat="45.38576774764806" lon="4.700036449357867"><ele></ele><time>2013-8-23T0:49:58Z</time></trkpt>
<trkpt lat="45.38582994136959" lon="4.699744004756212"><ele></ele><time>2013-8-23T0:50:1Z</time></trkpt>
<trkpt lat="45.38589200936258" lon="4.699495984241366"><ele></ele><time>2013-8-23T0:50:4Z</time></trkpt>
<trkpt lat="45.38594724610448" lon="4.699211837723851"><ele></ele><time>2013-8-23T0:50:7Z</time></trkpt>
<trkpt lat="45.386003740131855" lon="4.698918303474784"><ele></ele><time>2013-8-23T0:50:10Z</time></trkpt>
<trkpt lat="45.38605491165072" lon="4.698648154735565"><ele></ele><time>2013-8-23T0:50:13Z</time></trkpt>
<trkpt lat="45.38610130548477" lon="4.698358308523893"><ele></ele><time>2013-8-23T0:50:16Z</time></trkpt>
<trkpt lat="45.38616433739662" lon="4.698096122592688"><ele></ele><time>2013-8-23T0:50:19Z</time></trkpt>
<trkpt lat="45.38623973261565" lon="4.697837457060814"><ele></ele><time>2013-8-23T0:50:22Z</time></trkpt>
<trkpt lat="45.38629031740129" lon="4.697587927803397"><ele></ele><time>2013-8-23T0:50:25Z</time></trkpt>
<trkpt lat="45.386395803652704" lon="4.697379134595394"><ele></ele><time>2013-8-23T0:50:28Z</time></trkpt>
<trkpt lat="45.38646637927741" lon="4.697122648358345"><ele></ele><time>2013-8-23T0:50:31Z</time></trkpt>
<trkpt lat="45.38648490328342" lon="4.696845458820462"><ele></ele><time>2013-8-23T0:50:34Z</time></trkpt>
<trkpt lat="45.386485238559544" lon="4.696565670892596"><ele></ele><time>2013-8-23T0:50:37Z</time></trkpt>
<trkpt lat="45.38651046808809" lon="4.6962857991456985"><ele></ele><time>2013-8-23T0:50:40Z</time></trkpt>
<trkpt lat="45.38655510172248" lon="4.696019338443875"><ele></ele><time>2013-8-23T0:50:43Z</time></trkpt>
<trkpt lat="45.386527022346854" lon="4.695739885792136"><ele></ele><time>2013-8-23T0:50:46Z</time></trkpt>
<trkpt lat="45.38643557578325" lon="4.695484908297658"><ele></ele><time>2013-8-23T0:50:49Z</time></trkpt>
<trkpt lat="45.386277115903795" lon="4.695321461185813"><ele></ele><time>2013-8-23T0:50:52Z</time></trkpt>
<trkpt lat="45.38627564907074" lon="4.6950415056198835"><ele></ele><time>2013-8-23T0:50:55Z</time></trkpt>
<trkpt lat="45.38628143258393" lon="4.694747636094689"><ele></ele><time>2013-8-23T0:50:58Z</time></trkpt>
<trkpt lat="45.3861854178831" lon="4.694521073251963"><ele></ele><time>2013-8-23T0:51:1Z</time></trkpt>
<trkpt lat="45.3860427159816" lon="4.6943023055791855"><ele></ele><time>2013-8-23T0:51:4Z</time></trkpt>
<trkpt lat="45.385908144526184" lon="4.694105666130781"><ele></ele><time>2013-8-23T0:51:7Z</time></trkpt>
<trkpt lat="45.385762550868094" lon="4.6938837971538305"><ele></ele><time>2013-8-23T0:51:10Z</time></trkpt>
<trkpt lat="45.38561859168112" lon="4.693662011995912"><ele></ele><time>2013-8-23T0:51:13Z</time></trkpt>
<trkpt lat="45.38546147290617" lon="4.693398401141167"><ele></ele><time>2013-8-23T0:51:16Z</time></trkpt>
<trkpt lat="45.385310598649085" lon="4.693214250728488"><ele></ele><time>2013-8-23T0:51:19Z</time></trkpt>
<trkpt lat="45.38514979183674" lon="4.693046780303121"><ele></ele><time>2013-8-23T0:51:22Z</time></trkpt>
<trkpt lat="45.38499803747982" lon="4.692865731194615"><ele></ele><time>2013-8-23T0:51:25Z</time></trkpt>
<trkpt lat="45.38485080935061" lon="4.692683760076761"><ele></ele><time>2013-8-23T0:51:28Z</time></trkpt>
<trkpt lat="45.38471967447549" lon="4.69249558635056"><ele></ele><time>2013-8-23T0:51:31Z</time></trkpt>
<trkpt lat="45.38461485877633" lon="4.692258043214679"><ele></ele><time>2013-8-23T0:51:34Z</time></trkpt>
<trkpt lat="45.38451947271824" lon="4.692019410431385"><ele></ele><time>2013-8-23T0:51:37Z</time></trkpt>
<trkpt lat="45.38442609831691" lon="4.6917960327118635"><ele></ele><time>2013-8-23T0:51:40Z</time></trkpt>
<trkpt lat="45.3843375435099" lon="4.691567542031407"><ele></ele><time>2013-8-23T0:51:43Z</time></trkpt>
<trkpt lat="45.38424580357969" lon="4.691268224269152"><ele></ele><time>2013-8-23T0:51:46Z</time></trkpt>
<trkpt lat="45.38418021518737" lon="4.69098181463778"><ele></ele><time>2013-8-23T0:51:49Z</time></trkpt>
<trkpt lat="45.38409283384681" lon="4.6906916331499815"><ele></ele><time>2013-8-23T0:51:52Z</time></trkpt>
<trkpt lat="45.38399702869356" lon="4.690409833565354"><ele></ele><time>2013-8-23T0:51:55Z</time></trkpt>
<trkpt lat="45.383857009001076" lon="4.69019022770226"><ele></ele><time>2013-8-23T0:51:58Z</time></trkpt>
<trkpt lat="45.38370148278773" lon="4.689987972378731"><ele></ele><time>2013-8-23T0:52:1Z</time></trkpt>
<trkpt lat="45.38354754913598" lon="4.689785800874233"><ele></ele><time>2013-8-23T0:52:4Z</time></trkpt>
<trkpt lat="45.38338711950928" lon="4.689570805057883"><ele></ele><time>2013-8-23T0:52:7Z</time></trkpt>
<trkpt lat="45.383215919137" lon="4.68936980701983"><ele></ele><time>2013-8-23T0:52:10Z</time></trkpt>
<trkpt lat="45.383037300780416" lon="4.689173502847552"><ele></ele><time>2013-8-23T0:52:13Z</time></trkpt>
<trkpt lat="45.38287536241114" lon="4.688988514244556"><ele></ele><time>2013-8-23T0:52:16Z</time></trkpt>
<trkpt lat="45.38274385035038" lon="4.688797406852245"><ele></ele><time>2013-8-23T0:52:19Z</time></trkpt>
<trkpt lat="45.38263748399913" lon="4.688577800989151"><ele></ele><time>2013-8-23T0:52:22Z</time></trkpt>
<trkpt lat="45.382511797361076" lon="4.688357021659613"><ele></ele><time>2013-8-23T0:52:25Z</time></trkpt>
<trkpt lat="45.38232115097344" lon="4.688192987814546"><ele></ele><time>2013-8-23T0:52:28Z</time></trkpt>
<trkpt lat="45.38220082875341" lon="4.6879995334893465"><ele></ele><time>2013-8-23T0:52:31Z</time></trkpt>
<trkpt lat="45.38211805745959" lon="4.687753105536103"><ele></ele><time>2013-8-23T0:52:34Z</time></trkpt>
<trkpt lat="45.382011397741735" lon="4.687516735866666"><ele></ele><time>2013-8-23T0:52:37Z</time></trkpt>
<trkpt lat="45.38188910577446" lon="4.6873189229518175"><ele></ele><time>2013-8-23T0:52:40Z</time></trkpt>
<trkpt lat="45.381766310893" lon="4.687117841094732"><ele></ele><time>2013-8-23T0:52:43Z</time></trkpt>
<trkpt lat="45.38167322985828" lon="4.686883734539151"><ele></ele><time>2013-8-23T0:52:46Z</time></trkpt>
<trkpt lat="45.38150324486196" lon="4.686748869717121"><ele></ele><time>2013-8-23T0:52:49Z</time></trkpt>
<trkpt lat="45.381344449706376" lon="4.686622554436326"><ele></ele><time>2013-8-23T0:52:52Z</time></trkpt>
<trkpt lat="45.38119525182992" lon="4.68644879758358"><ele></ele><time>2013-8-23T0:52:55Z</time></trkpt>
<trkpt lat="45.38104886189103" lon="4.686256516724825"><ele></ele><time>2013-8-23T0:52:58Z</time></trkpt>
<trkpt lat="45.38103058934212" lon="4.685998689383268"><ele></ele><time>2013-8-23T0:53:1Z</time></trkpt>
<trkpt lat="45.381040018983185" lon="4.685713117942214"><ele></ele><time>2013-8-23T0:53:4Z</time></trkpt>
<trkpt lat="45.38107618689537" lon="4.685439867898822"><ele></ele><time>2013-8-23T0:53:7Z</time></trkpt>
<trkpt lat="45.381096974015236" lon="4.685180699452758"><ele></ele><time>2013-8-23T0:53:10Z</time></trkpt>
<trkpt lat="45.38111344445497" lon="4.684912981465459"><ele></ele><time>2013-8-23T0:53:13Z</time></trkpt>
<trkpt lat="45.38113833870739" lon="4.6846492029726505"><ele></ele><time>2013-8-23T0:53:16Z</time></trkpt>
<trkpt lat="45.38117785938084" lon="4.684376372024417"><ele></ele><time>2013-8-23T0:53:19Z</time></trkpt>
<trkpt lat="45.381247135810554" lon="4.6841152757406235"><ele></ele><time>2013-8-23T0:53:22Z</time></trkpt>
<trkpt lat="45.38133627735078" lon="4.683873038738966"><ele></ele><time>2013-8-23T0:53:25Z</time></trkpt>
<trkpt lat="45.38139792624861" lon="4.68361965380609"><ele></ele><time>2013-8-23T0:53:28Z</time></trkpt>
<trkpt lat="45.38147080689669" lon="4.683370711281896"><ele></ele><time>2013-8-23T0:53:31Z</time></trkpt>
<trkpt lat="45.381483966484666" lon="4.683099053800106"><ele></ele><time>2013-8-23T0:53:34Z</time></trkpt>
<trkpt lat="45.38144934922457" lon="4.6828285697847605"><ele></ele><time>2013-8-23T0:53:37Z</time></trkpt>
<trkpt lat="45.38138589821756" lon="4.682561103254557"><ele></ele><time>2013-8-23T0:53:40Z</time></trkpt>
<trkpt lat="45.381355681456625" lon="4.682293888181448"><ele></ele><time>2013-8-23T0:53:43Z</time></trkpt>
<trkpt lat="45.381349311210215" lon="4.682036144658923"><ele></ele><time>2013-8-23T0:53:46Z</time></trkpt>
<trkpt lat="45.38136703893542" lon="4.681759541854262"><ele></ele><time>2013-8-23T0:53:49Z</time></trkpt>
<trkpt lat="45.38138610776514" lon="4.681491069495678"><ele></ele><time>2013-8-23T0:53:52Z</time></trkpt>
<trkpt lat="45.3814018657431" lon="4.6812282130122185"><ele></ele><time>2013-8-23T0:53:55Z</time></trkpt>
<trkpt lat="45.38141393568367" lon="4.680973067879677"><ele></ele><time>2013-8-23T0:53:58Z</time></trkpt>
<trkpt lat="45.38144696038216" lon="4.680719850584865"><ele></ele><time>2013-8-23T0:54:1Z</time></trkpt>
<trkpt lat="45.381433800794184" lon="4.6804503723979"><ele></ele><time>2013-8-23T0:54:4Z</time></trkpt>
<trkpt lat="45.381376845762134" lon="4.680191287770867"><ele></ele><time>2013-8-23T0:54:7Z</time></trkpt>
<trkpt lat="45.38131930399686" lon="4.679934550076723"><ele></ele><time>2013-8-23T0:54:10Z</time></trkpt>
<trkpt lat="45.38126536644995" lon="4.679676052182913"><ele></ele><time>2013-8-23T0:54:13Z</time></trkpt>
<trkpt lat="45.38122291211039" lon="4.679406154900789"><ele></ele><time>2013-8-23T0:54:16Z</time></trkpt>
<trkpt lat="45.38116704672575" lon="4.679146651178598"><ele></ele><time>2013-8-23T0:54:19Z</time></trkpt>
<trkpt lat="45.381107702851295" lon="4.678893266245723"><ele></ele><time>2013-8-23T0:54:22Z</time></trkpt>
<trkpt lat="45.38103452883661" lon="4.678646586835384"><ele></ele><time>2013-8-23T0:54:25Z</time></trkpt>
<trkpt lat="45.380964037030935" lon="4.6784065291285515"><ele></ele><time>2013-8-23T0:54:28Z</time></trkpt>
<trkpt lat="45.38105929736048" lon="4.6781806368380785"><ele></ele><time>2013-8-23T0:54:31Z</time></trkpt>
<trkpt lat="45.3812084114179" lon="4.67803169041872"><ele></ele><time>2013-8-23T0:54:34Z</time></trkpt>
<trkpt lat="45.381342940963805" lon="4.677850306034088"><ele></ele><time>2013-8-23T0:54:37Z</time></trkpt>
<trkpt lat="45.38144670892507" lon="4.677625084295869"><ele></ele><time>2013-8-23T0:54:40Z</time></trkpt>
<trkpt lat="45.38161300588399" lon="4.677486112341285"><ele></ele><time>2013-8-23T0:54:43Z</time></trkpt>
<trkpt lat="45.381751977838576" lon="4.677309673279524"><ele></ele><time>2013-8-23T0:54:46Z</time></trkpt>
<trkpt lat="45.381898786872625" lon="4.677120493724942"><ele></ele><time>2013-8-23T0:54:49Z</time></trkpt>
<trkpt lat="45.382056115195155" lon="4.676980348303914"><ele></ele><time>2013-8-23T0:54:52Z</time></trkpt>
<trkpt lat="45.382267171517015" lon="4.676997195929289"><ele></ele><time>2013-8-23T0:54:55Z</time></trkpt>
<trkpt lat="45.382424499839544" lon="4.67712233774364"><ele></ele><time>2013-8-23T0:54:58Z</time></trkpt>
<trkpt lat="45.38258497137576" lon="4.677260220050812"><ele></ele><time>2013-8-23T0:55:1Z</time></trkpt>
<trkpt lat="45.38277423474938" lon="4.677359964698553"><ele></ele><time>2013-8-23T0:55:4Z</time></trkpt>
<trkpt lat="45.38297317922115" lon="4.677426936104894"><ele></ele><time>2013-8-23T0:55:7Z</time></trkpt>
<trkpt lat="45.38316726218909" lon="4.677469935268164"><ele></ele><time>2013-8-23T0:55:10Z</time></trkpt>
<trkpt lat="45.383347095921636" lon="4.677546378225088"><ele></ele><time>2013-8-23T0:55:13Z</time></trkpt>
<trkpt lat="45.38354402873665" lon="4.677651906386018"><ele></ele><time>2013-8-23T0:55:16Z</time></trkpt>
<trkpt lat="45.3837090684101" lon="4.677764810621738"><ele></ele><time>2013-8-23T0:55:19Z</time></trkpt>
<trkpt lat="45.38389321882278" lon="4.677883749827743"><ele></ele><time>2013-8-23T0:55:22Z</time></trkpt>
<trkpt lat="45.3840552829206" lon="4.678018279373646"><ele></ele><time>2013-8-23T0:55:25Z</time></trkpt>
<trkpt lat="45.3842365834862" lon="4.678150545805693"><ele></ele><time>2013-8-23T0:55:28Z</time></trkpt>
<trkpt lat="45.3844038862735" lon="4.678290523588657"><ele></ele><time>2013-8-23T0:55:31Z</time></trkpt>
<trkpt lat="45.38458774331957" lon="4.6783641166985035"><ele></ele><time>2013-8-23T0:55:34Z</time></trkpt>
<trkpt lat="45.38478916045278" lon="4.6784548088908195"><ele></ele><time>2013-8-23T0:55:37Z</time></trkpt>
<trkpt lat="45.38496937137097" lon="4.678530246019363"><ele></ele><time>2013-8-23T0:55:40Z</time></trkpt>
<trkpt lat="45.38514136802405" lon="4.678656980395317"><ele></ele><time>2013-8-23T0:55:43Z</time></trkpt>
<trkpt lat="45.385336498729885" lon="4.678720850497484"><ele></ele><time>2013-8-23T0:55:46Z</time></trkpt>
<trkpt lat="45.385514446534216" lon="4.678812213242054"><ele></ele><time>2013-8-23T0:55:49Z</time></trkpt>
<trkpt lat="45.385711546987295" lon="4.6789690386503935"><ele></ele><time>2013-8-23T0:55:52Z</time></trkpt>
<trkpt lat="45.38589846342802" lon="4.679078422486782"><ele></ele><time>2013-8-23T0:55:55Z</time></trkpt>
<trkpt lat="45.386081230826676" lon="4.679231056943536"><ele></ele><time>2013-8-23T0:55:58Z</time></trkpt>
<trkpt lat="45.38611718919128" lon="4.679488884285092"><ele></ele><time>2013-8-23T0:56:1Z</time></trkpt>
<trkpt lat="45.38629094604403" lon="4.679580582305789"><ele></ele><time>2013-8-23T0:56:4Z</time></trkpt>
<trkpt lat="45.386460847221315" lon="4.679669765755534"><ele></ele><time>2013-8-23T0:56:7Z</time></trkpt>
<trkpt lat="45.38664575200528" lon="4.679720895364881"><ele></ele><time>2013-8-23T0:56:10Z</time></trkpt>
<trkpt lat="45.38683120161295" lon="4.679690469056368"><ele></ele><time>2013-8-23T0:56:13Z</time></trkpt>
<trkpt lat="45.387030774727464" lon="4.679742101579905"><ele></ele><time>2013-8-23T0:56:16Z</time></trkpt>
<trkpt lat="45.387231730856" lon="4.679753752425313"><ele></ele><time>2013-8-23T0:56:19Z</time></trkpt>
<trkpt lat="45.387379210442305" lon="4.679590305313468"><ele></ele><time>2013-8-23T0:56:22Z</time></trkpt>
<trkpt lat="45.38753892760724" lon="4.679471701383591"><ele></ele><time>2013-8-23T0:56:25Z</time></trkpt>
<trkpt lat="45.38766473997384" lon="4.679251927882433"><ele></ele><time>2013-8-23T0:56:28Z</time></trkpt>
<trkpt lat="45.38780501112342" lon="4.679072974249721"><ele></ele><time>2013-8-23T0:56:31Z</time></trkpt>
<trkpt lat="45.38795039523393" lon="4.678908521309495"><ele></ele><time>2013-8-23T0:56:34Z</time></trkpt>
<trkpt lat="45.38806028198451" lon="4.678706014528871"><ele></ele><time>2013-8-23T0:56:37Z</time></trkpt>
<trkpt lat="45.3881572606042" lon="4.6784817148"><ele></ele><time>2013-8-23T0:56:40Z</time></trkpt>
<trkpt lat="45.388231608085334" lon="4.678247859701514"><ele></ele><time>2013-8-23T0:56:43Z</time></trkpt>
<trkpt lat="45.38835708517581" lon="4.678048286587"><ele></ele><time>2013-8-23T0:56:46Z</time></trkpt>
<trkpt lat="45.38837837520987" lon="4.677794314920902"><ele></ele><time>2013-8-23T0:56:49Z</time></trkpt>
<trkpt lat="45.388402976095676" lon="4.677531374618411"><ele></ele><time>2013-8-23T0:56:52Z</time></trkpt>
<trkpt lat="45.38842690642923" lon="4.677267428487539"><ele></ele><time>2013-8-23T0:56:55Z</time></trkpt>
<trkpt lat="45.38848679512739" lon="4.676993507891893"><ele></ele><time>2013-8-23T0:56:58Z</time></trkpt>
<trkpt lat="45.38849048316479" lon="4.676737105473876"><ele></ele><time>2013-8-23T0:57:1Z</time></trkpt>
<trkpt lat="45.38847195915878" lon="4.676476093009114"><ele></ele><time>2013-8-23T0:57:4Z</time></trkpt>
<trkpt lat="45.38842103909701" lon="4.676225474104285"><ele></ele><time>2013-8-23T0:57:7Z</time></trkpt>
<trkpt lat="45.38833516649902" lon="4.6759950555861"><ele></ele><time>2013-8-23T0:57:10Z</time></trkpt>
<trkpt lat="45.38824015762657" lon="4.675745191052556"><ele></ele><time>2013-8-23T0:57:13Z</time></trkpt>
<trkpt lat="45.38814523257315" lon="4.675515443086624"><ele></ele><time>2013-8-23T0:57:16Z</time></trkpt>
<trkpt lat="45.388075285591185" lon="4.675274966284633"><ele></ele><time>2013-8-23T0:57:19Z</time></trkpt>
<trkpt lat="45.38800923619419" lon="4.675031052902341"><ele></ele><time>2013-8-23T0:57:22Z</time></trkpt>
<trkpt lat="45.38790534250438" lon="4.674769202247262"><ele></ele><time>2013-8-23T0:57:25Z</time></trkpt>
<trkpt lat="45.38778007496148" lon="4.674507770687342"><ele></ele><time>2013-8-23T0:57:28Z</time></trkpt>
<trkpt lat="45.387657950632274" lon="4.674252290278673"><ele></ele><time>2013-8-23T0:57:31Z</time></trkpt>
<trkpt lat="45.387534191831946" lon="4.674007035791874"><ele></ele><time>2013-8-23T0:57:34Z</time></trkpt>
<trkpt lat="45.38739806972444" lon="4.673772342503071"><ele></ele><time>2013-8-23T0:57:37Z</time></trkpt>
<trkpt lat="45.38728436920792" lon="4.673562878742814"><ele></ele><time>2013-8-23T0:57:40Z</time></trkpt>
<trkpt lat="45.38722175639123" lon="4.673309493809938"><ele></ele><time>2013-8-23T0:57:43Z</time></trkpt>
<trkpt lat="45.387161071412265" lon="4.6730641555041075"><ele></ele><time>2013-8-23T0:57:46Z</time></trkpt>
<trkpt lat="45.38710093125701" lon="4.672789983451366"><ele></ele><time>2013-8-23T0:57:49Z</time></trkpt>
<trkpt lat="45.38708990905434" lon="4.672527965158224"><ele></ele><time>2013-8-23T0:57:52Z</time></trkpt>
<trkpt lat="45.38717083632946" lon="4.672243734821677"><ele></ele><time>2013-8-23T0:57:55Z</time></trkpt>
<trkpt lat="45.38733181077987" lon="4.672058830037713"><ele></ele><time>2013-8-23T0:57:58Z</time></trkpt>
<trkpt lat="45.38748872000724" lon="4.6719052735716105"><ele></ele><time>2013-8-23T0:58:1Z</time></trkpt>
<trkpt lat="45.387666961178184" lon="4.671865710988641"><ele></ele><time>2013-8-23T0:58:4Z</time></trkpt>
<trkpt lat="45.3878432745114" lon="4.67192966490984"><ele></ele><time>2013-8-23T0:58:7Z</time></trkpt>
<trkpt lat="45.38806229364127" lon="4.671905022114515"><ele></ele><time>2013-8-23T0:58:10Z</time></trkpt>
<trkpt lat="45.388256376609206" lon="4.67183880507946"><ele></ele><time>2013-8-23T0:58:13Z</time></trkpt>
<trkpt lat="45.388443754054606" lon="4.671819694340229"><ele></ele><time>2013-8-23T0:58:16Z</time></trkpt>
<trkpt lat="45.388630419038236" lon="4.671826651319861"><ele></ele><time>2013-8-23T0:58:19Z</time></trkpt>
<trkpt lat="45.388816078193486" lon="4.671681057661772"><ele></ele><time>2013-8-23T0:58:22Z</time></trkpt>
<trkpt lat="45.389006389304996" lon="4.671552311629057"><ele></ele><time>2013-8-23T0:58:25Z</time></trkpt>
<trkpt lat="45.38922859355807" lon="4.671508641913533"><ele></ele><time>2013-8-23T0:58:28Z</time></trkpt>
<trkpt lat="45.38942154496908" lon="4.671514090150595"><ele></ele><time>2013-8-23T0:58:31Z</time></trkpt>
<trkpt lat="45.3896190226078" lon="4.6715466119349"><ele></ele><time>2013-8-23T0:58:34Z</time></trkpt>
<trkpt lat="45.38985107559711" lon="4.671610482037067"><ele></ele><time>2013-8-23T0:58:37Z</time></trkpt>
<trkpt lat="45.39001137949526" lon="4.67172933742404"><ele></ele><time>2013-8-23T0:58:40Z</time></trkpt>
<trkpt lat="45.390236265957355" lon="4.671911392360926"><ele></ele><time>2013-8-23T0:58:43Z</time></trkpt>
<trkpt lat="45.39043080992997" lon="4.672131836414337"><ele></ele><time>2013-8-23T0:58:46Z</time></trkpt>
<trkpt lat="45.39060326758772" lon="4.672373067587614"><ele></ele><time>2013-8-23T0:58:49Z</time></trkpt>
<trkpt lat="45.3907572850585" lon="4.672620417550206"><ele></ele><time>2013-8-23T0:58:52Z</time></trkpt>
<trkpt lat="45.39089793339372" lon="4.672861900180578"><ele></ele><time>2013-8-23T0:58:55Z</time></trkpt>
<trkpt lat="45.39103912655264" lon="4.673096425831318"><ele></ele><time>2013-8-23T0:58:58Z</time></trkpt>
<trkpt lat="45.39116967469454" lon="4.6733268443495035"><ele></ele><time>2013-8-23T0:59:1Z</time></trkpt>
<trkpt lat="45.39132654201239" lon="4.673464642837644"><ele></ele><time>2013-8-23T0:59:4Z</time></trkpt>
<trkpt lat="45.39139062166214" lon="4.67320354655385"><ele></ele><time>2013-8-23T0:59:7Z</time></trkpt>
<trkpt lat="45.39145403075963" lon="4.672957621514797"><ele></ele><time>2013-8-23T0:59:10Z</time></trkpt>
<trkpt lat="45.39148843847215" lon="4.672693507745862"><ele></ele><time>2013-8-23T0:59:13Z</time></trkpt>
<trkpt lat="45.391672337427735" lon="4.672671295702457"><ele></ele><time>2013-8-23T0:59:16Z</time></trkpt>
<trkpt lat="45.39186424110085" lon="4.672751594334841"><ele></ele><time>2013-8-23T0:59:19Z</time></trkpt>
<trkpt lat="45.39204256609082" lon="4.672813704237342"><ele></ele><time>2013-8-23T0:59:22Z</time></trkpt>
<trkpt lat="45.39225001819432" lon="4.672885201871395"><ele></ele><time>2013-8-23T0:59:25Z</time></trkpt>
<trkpt lat="45.39243069011718" lon="4.672982599586248"><ele></ele><time>2013-8-23T0:59:28Z</time></trkpt>
<trkpt lat="45.39261240977794" lon="4.6730653289705515"><ele></ele><time>2013-8-23T0:59:31Z</time></trkpt>
<trkpt lat="45.39282283745706" lon="4.673146717250347"><ele></ele><time>2013-8-23T0:59:34Z</time></trkpt>
<trkpt lat="45.39298967923969" lon="4.673252999782562"><ele></ele><time>2013-8-23T0:59:37Z</time></trkpt>
<trkpt lat="45.39313736837357" lon="4.6730682626366615"><ele></ele><time>2013-8-23T0:59:40Z</time></trkpt>
<trkpt lat="45.39324788376689" lon="4.672849411144853"><ele></ele><time>2013-8-23T0:59:43Z</time></trkpt>
<trkpt lat="45.39338656235486" lon="4.672653190791607"><ele></ele><time>2013-8-23T0:59:46Z</time></trkpt>
<trkpt lat="45.39354141801596" lon="4.672514973208308"><ele></ele><time>2013-8-23T0:59:49Z</time></trkpt>
<trkpt lat="45.39371123537421" lon="4.6724150609225035"><ele></ele><time>2013-8-23T0:59:52Z</time></trkpt>
<trkpt lat="45.393889686092734" lon="4.672294864431024"><ele></ele><time>2013-8-23T0:59:55Z</time></trkpt>
<trkpt lat="45.394053594209254" lon="4.6721128933131695"><ele></ele><time>2013-8-23T0:59:58Z</time></trkpt>
<trkpt lat="45.39421867579222" lon="4.671937627717853"><ele></ele><time>2013-8-23T1:0:1Z</time></trkpt>
<trkpt lat="45.39437646511942" lon="4.671751298010349"><ele></ele><time>2013-8-23T1:0:4Z</time></trkpt>
<trkpt lat="45.39452331606299" lon="4.671588186174631"><ele></ele><time>2013-8-23T1:0:7Z</time></trkpt>
<trkpt lat="45.39471190888435" lon="4.671556921675801"><ele></ele><time>2013-8-23T1:0:10Z</time></trkpt>
<trkpt lat="45.39489983115345" lon="4.671562872827053"><ele></ele><time>2013-8-23T1:0:13Z</time></trkpt>
<trkpt lat="45.39507974870503" lon="4.671624563634396"><ele></ele><time>2013-8-23T1:0:16Z</time></trkpt>
<trkpt lat="45.3952281922102" lon="4.6718010026961565"><ele></ele><time>2013-8-23T1:0:19Z</time></trkpt>
<trkpt lat="45.395378773100674" lon="4.671971406787634"><ele></ele><time>2013-8-23T1:0:22Z</time></trkpt>
<trkpt lat="45.39551845751703" lon="4.672134183347225"><ele></ele><time>2013-8-23T1:0:25Z</time></trkpt>
<trkpt lat="45.39568152744323" lon="4.672273490577936"><ele></ele><time>2013-8-23T1:0:28Z</time></trkpt>
<trkpt lat="45.395825863815844" lon="4.672455629333854"><ele></ele><time>2013-8-23T1:0:31Z</time></trkpt>
<trkpt lat="45.395961524918675" lon="4.672634080052376"><ele></ele><time>2013-8-23T1:0:34Z</time></trkpt>
<trkpt lat="45.39613318629563" lon="4.672761904075742"><ele></ele><time>2013-8-23T1:0:37Z</time></trkpt>
<trkpt lat="45.3963117627427" lon="4.672854775562882"><ele></ele><time>2013-8-23T1:0:40Z</time></trkpt>
<trkpt lat="45.39648522622883" lon="4.672972206026316"><ele></ele><time>2013-8-23T1:0:43Z</time></trkpt>
<trkpt lat="45.39664096198976" lon="4.6731015387922525"><ele></ele><time>2013-8-23T1:0:46Z</time></trkpt>
<trkpt lat="45.39679518900812" lon="4.6732372418046"><ele></ele><time>2013-8-23T1:0:49Z</time></trkpt>
<trkpt lat="45.39696685038507" lon="4.673325251787901"><ele></ele><time>2013-8-23T1:0:52Z</time></trkpt>
<trkpt lat="45.39710728917271" lon="4.673516023904085"><ele></ele><time>2013-8-23T1:0:55Z</time></trkpt>
<trkpt lat="45.39725782815367" lon="4.673694474622607"><ele></ele><time>2013-8-23T1:0:58Z</time></trkpt>
<trkpt lat="45.39740120060742" lon="4.673849204555154"><ele></ele><time>2013-8-23T1:1:1Z</time></trkpt>
<trkpt lat="45.39755140431225" lon="4.6739965584129095"><ele></ele><time>2013-8-23T1:1:4Z</time></trkpt>
<trkpt lat="45.39768903516233" lon="4.674176853150129"><ele></ele><time>2013-8-23T1:1:7Z</time></trkpt>
<trkpt lat="45.39782633073628" lon="4.674367289990187"><ele></ele><time>2013-8-23T1:1:10Z</time></trkpt>
<trkpt lat="45.39793873205781" lon="4.6745687909424305"><ele></ele><time>2013-8-23T1:1:13Z</time></trkpt>
<trkpt lat="45.398080637678504" lon="4.674764424562454"><ele></ele><time>2013-8-23T1:1:16Z</time></trkpt>
<trkpt lat="45.39823151193559" lon="4.674934493377805"><ele></ele><time>2013-8-23T1:1:19Z</time></trkpt>
<trkpt lat="45.398413189686835" lon="4.674931392073631"><ele></ele><time>2013-8-23T1:1:22Z</time></trkpt>
<trkpt lat="45.39854738395661" lon="4.675107914954424"><ele></ele><time>2013-8-23T1:1:25Z</time></trkpt>
<trkpt lat="45.39873015135527" lon="4.675107663497329"><ele></ele><time>2013-8-23T1:1:28Z</time></trkpt>
<trkpt lat="45.39888995233923" lon="4.674959136173129"><ele></ele><time>2013-8-23T1:1:31Z</time></trkpt>
<trkpt lat="45.39889887906611" lon="4.67469971626997"><ele></ele><time>2013-8-23T1:1:34Z</time></trkpt>
<trkpt lat="45.398788657039404" lon="4.674483295530081"><ele></ele><time>2013-8-23T1:1:37Z</time></trkpt>
<trkpt lat="45.398667957633734" lon="4.674288248643279"><ele></ele><time>2013-8-23T1:1:40Z</time></trkpt>
<trkpt lat="45.39861640892923" lon="4.6740430779755116"><ele></ele><time>2013-8-23T1:1:43Z</time></trkpt>
<trkpt lat="45.39852257352322" lon="4.673806289210916"><ele></ele><time>2013-8-23T1:1:46Z</time></trkpt>
<trkpt lat="45.39851226378232" lon="4.67355047352612"><ele></ele><time>2013-8-23T1:1:49Z</time></trkpt>
<trkpt lat="45.39851653855294" lon="4.673284767195582"><ele></ele><time>2013-8-23T1:1:52Z</time></trkpt>
<trkpt lat="45.39858200121671" lon="4.673041943460703"><ele></ele><time>2013-8-23T1:1:55Z</time></trkpt>
<trkpt lat="45.398756763897836" lon="4.6729345712810755"><ele></ele><time>2013-8-23T1:1:58Z</time></trkpt>
<trkpt lat="45.39893391542137" lon="4.6730458829551935"><ele></ele><time>2013-8-23T1:2:1Z</time></trkpt>
<trkpt lat="45.399096314795315" lon="4.673168677836657"><ele></ele><time>2013-8-23T1:2:4Z</time></trkpt>
<trkpt lat="45.399281554855406" lon="4.673272278159857"><ele></ele><time>2013-8-23T1:2:7Z</time></trkpt>
<trkpt lat="45.39946117904037" lon="4.673331454396248"><ele></ele><time>2013-8-23T1:2:10Z</time></trkpt>
<trkpt lat="45.39966196753085" lon="4.6733442787081"><ele></ele><time>2013-8-23T1:2:13Z</time></trkpt>
<trkpt lat="45.3998500155285" lon="4.673371938988566"><ele></ele><time>2013-8-23T1:2:16Z</time></trkpt>
<trkpt lat="45.400040368549526" lon="4.6734025329351425"><ele></ele><time>2013-8-23T1:2:19Z</time></trkpt>
<trkpt lat="45.40022548288107" lon="4.673350313678384"><ele></ele><time>2013-8-23T1:2:22Z</time></trkpt>
<trkpt lat="45.400409968569875" lon="4.673297759145498"><ele></ele><time>2013-8-23T1:2:25Z</time></trkpt>
<trkpt lat="45.400599357672036" lon="4.673254257068038"><ele></ele><time>2013-8-23T1:2:28Z</time></trkpt>
<trkpt lat="45.40077730547637" lon="4.673144621774554"><ele></ele><time>2013-8-23T1:2:31Z</time></trkpt>
<trkpt lat="45.40096019860357" lon="4.673093827441335"><ele></ele><time>2013-8-23T1:2:34Z</time></trkpt>
<trkpt lat="45.40115080308169" lon="4.672976145520806"><ele></ele><time>2013-8-23T1:2:37Z</time></trkpt>
<trkpt lat="45.40129673201591" lon="4.6728026401251554"><ele></ele><time>2013-8-23T1:2:40Z</time></trkpt>
<trkpt lat="45.40138738229871" lon="4.672573311254382"><ele></ele><time>2013-8-23T1:2:43Z</time></trkpt>
<trkpt lat="45.40148440282792" lon="4.672344317659736"><ele></ele><time>2013-8-23T1:2:46Z</time></trkpt>
<trkpt lat="45.401626392267644" lon="4.6721467562019825"><ele></ele><time>2013-8-23T1:2:49Z</time></trkpt>
<trkpt lat="45.40178631898016" lon="4.671961767598987"><ele></ele><time>2013-8-23T1:2:52Z</time></trkpt>
<trkpt lat="45.40190115105361" lon="4.671727158129215"><ele></ele><time>2013-8-23T1:2:55Z</time></trkpt>
<trkpt lat="45.40203304030001" lon="4.671543342992663"><ele></ele><time>2013-8-23T1:2:58Z</time></trkpt>
<trkpt lat="45.40219384711236" lon="4.6714213863015175"><ele></ele><time>2013-8-23T1:3:1Z</time></trkpt>
<trkpt lat="45.4022780014202" lon="4.671171186491847"><ele></ele><time>2013-8-23T1:3:4Z</time></trkpt>
<trkpt lat="45.40236165281385" lon="4.670927273109555"><ele></ele><time>2013-8-23T1:3:7Z</time></trkpt>
<trkpt lat="45.40245879907161" lon="4.67067732475698"><ele></ele><time>2013-8-23T1:3:10Z</time></trkpt>
<trkpt lat="45.4025385947898" lon="4.670445146039128"><ele></ele><time>2013-8-23T1:3:13Z</time></trkpt>
<trkpt lat="45.40260891895741" lon="4.670194443315268"><ele></ele><time>2013-8-23T1:3:16Z</time></trkpt>
<trkpt lat="45.402659378014505" lon="4.66993753798306"><ele></ele><time>2013-8-23T1:3:19Z</time></trkpt>
<trkpt lat="45.40271054953337" lon="4.669689266011119"><ele></ele><time>2013-8-23T1:3:22Z</time></trkpt>
<trkpt lat="45.40265585761517" lon="4.669437389820814"><ele></ele><time>2013-8-23T1:3:25Z</time></trkpt>
<trkpt lat="45.402716752141714" lon="4.669182412326336"><ele></ele><time>2013-8-23T1:3:28Z</time></trkpt>
<trkpt lat="45.40284285787493" lon="4.668982168659568"><ele></ele><time>2013-8-23T1:3:31Z</time></trkpt>
<trkpt lat="45.40292378515005" lon="4.668737165629864"><ele></ele><time>2013-8-23T1:3:34Z</time></trkpt>
<trkpt lat="45.40310127194971" lon="4.668685868382454"><ele></ele><time>2013-8-23T1:3:37Z</time></trkpt>
<trkpt lat="45.403291624970734" lon="4.668676313012838"><ele></ele><time>2013-8-23T1:3:40Z</time></trkpt>
<trkpt lat="45.4034728417173" lon="4.668675726279616"><ele></ele><time>2013-8-23T1:3:43Z</time></trkpt>
<trkpt lat="45.403679120354354" lon="4.668708834797144"><ele></ele><time>2013-8-23T1:3:46Z</time></trkpt>
<trkpt lat="45.403853547759354" lon="4.668638678267598"><ele></ele><time>2013-8-23T1:3:49Z</time></trkpt>
<trkpt lat="45.40402839425951" lon="4.668525941669941"><ele></ele><time>2013-8-23T1:3:52Z</time></trkpt>
<trkpt lat="45.40415278170258" lon="4.668714366853237"><ele></ele><time>2013-8-23T1:3:55Z</time></trkpt>
<trkpt lat="45.404309229925275" lon="4.668905306607485"><ele></ele><time>2013-8-23T1:3:58Z</time></trkpt>
<trkpt lat="45.40451546665281" lon="4.668951574712992"><ele></ele><time>2013-8-23T1:4:1Z</time></trkpt>
<trkpt lat="45.40473205503076" lon="4.668995663523674"><ele></ele><time>2013-8-23T1:4:4Z</time></trkpt>
<trkpt lat="45.40491042193025" lon="4.669052828103304"><ele></ele><time>2013-8-23T1:4:7Z</time></trkpt>
<trkpt lat="45.405112761072814" lon="4.6691203862428665"><ele></ele><time>2013-8-23T1:4:10Z</time></trkpt>
<trkpt lat="45.40527742356062" lon="4.669243348762393"><ele></ele><time>2013-8-23T1:4:13Z</time></trkpt>
<trkpt lat="45.40547397918999" lon="4.669407969340682"><ele></ele><time>2013-8-23T1:4:16Z</time></trkpt>
<trkpt lat="45.4056367976591" lon="4.669586420059204"><ele></ele><time>2013-8-23T1:4:19Z</time></trkpt>
<trkpt lat="45.40580141823739" lon="4.669698737561703"><ele></ele><time>2013-8-23T1:4:22Z</time></trkpt>
<trkpt lat="45.40599072352052" lon="4.669780880212784"><ele></ele><time>2013-8-23T1:4:25Z</time></trkpt>
<trkpt lat="45.406161420978606" lon="4.669912559911609"><ele></ele><time>2013-8-23T1:4:28Z</time></trkpt>
<trkpt lat="45.40624159388244" lon="4.67014130204916"><ele></ele><time>2013-8-23T1:4:31Z</time></trkpt>
<trkpt lat="45.406276169233024" lon="4.670394854620099"><ele></ele><time>2013-8-23T1:4:34Z</time></trkpt>
<trkpt lat="45.40636547841132" lon="4.670624602586031"><ele></ele><time>2013-8-23T1:4:37Z</time></trkpt>
<trkpt lat="45.406434796750546" lon="4.670888716354966"><ele></ele><time>2013-8-23T1:4:40Z</time></trkpt>
<trkpt lat="45.40657347533852" lon="4.671067586168647"><ele></ele><time>2013-8-23T1:4:43Z</time></trkpt>
<trkpt lat="45.406708172522485" lon="4.671263638883829"><ele></ele><time>2013-8-23T1:4:46Z</time></trkpt>
<trkpt lat="45.40687706787139" lon="4.671378303319216"><ele></ele><time>2013-8-23T1:4:49Z</time></trkpt>
<trkpt lat="45.40704298764467" lon="4.671507636085153"><ele></ele><time>2013-8-23T1:4:52Z</time></trkpt>
<trkpt lat="45.40712546557188" lon="4.671735791489482"><ele></ele><time>2013-8-23T1:4:55Z</time></trkpt>
<trkpt lat="45.40730345528573" lon="4.671854143962264"><ele></ele><time>2013-8-23T1:4:58Z</time></trkpt>
<trkpt lat="45.40745135396719" lon="4.672042988240719"><ele></ele><time>2013-8-23T1:5:1Z</time></trkpt>
<trkpt lat="45.40757754351944" lon="4.672249015420675"><ele></ele><time>2013-8-23T1:5:4Z</time></trkpt>
<trkpt lat="45.407754317857325" lon="4.672386394813657"><ele></ele><time>2013-8-23T1:5:7Z</time></trkpt>
<trkpt lat="45.40787233505398" lon="4.672614550217986"><ele></ele><time>2013-8-23T1:5:10Z</time></trkpt>
<trkpt lat="45.407928451895714" lon="4.672874892130494"><ele></ele><time>2013-8-23T1:5:13Z</time></trkpt>
<trkpt lat="45.40787857957184" lon="4.6732482220977545"><ele></ele><time>2013-8-23T1:5:16Z</time></trkpt>
<trkpt lat="45.40788683574647" lon="4.673513006418943"><ele></ele><time>2013-8-23T1:5:19Z</time></trkpt>
<trkpt lat="45.40789924096316" lon="4.673808217048645"><ele></ele><time>2013-8-23T1:5:22Z</time></trkpt>
<trkpt lat="45.40786961093545" lon="4.674075935035944"><ele></ele><time>2013-8-23T1:5:25Z</time></trkpt>
<trkpt lat="45.407861773855984" lon="4.674367122352123"><ele></ele><time>2013-8-23T1:5:28Z</time></trkpt>
<trkpt lat="45.40783348493278" lon="4.674627128988504"><ele></ele><time>2013-8-23T1:5:31Z</time></trkpt>
<trkpt lat="45.407856996171176" lon="4.674884285777807"><ele></ele><time>2013-8-23T1:5:34Z</time></trkpt>
<trkpt lat="45.407847189344466" lon="4.675140185281634"><ele></ele><time>2013-8-23T1:5:37Z</time></trkpt>
<trkpt lat="45.40788800921291" lon="4.6753939893096685"><ele></ele><time>2013-8-23T1:5:40Z</time></trkpt>
<trkpt lat="45.40796767920256" lon="4.675660198554397"><ele></ele><time>2013-8-23T1:5:43Z</time></trkpt>
<trkpt lat="45.40809290483594" lon="4.675892796367407"><ele></ele><time>2013-8-23T1:5:46Z</time></trkpt>
<trkpt lat="45.40816603694111" lon="4.676185576245189"><ele></ele><time>2013-8-23T1:5:49Z</time></trkpt>
<trkpt lat="45.40812701918185" lon="4.676489336416125"><ele></ele><time>2013-8-23T1:5:52Z</time></trkpt>
<trkpt lat="45.40804789401591" lon="4.676777757704258"><ele></ele><time>2013-8-23T1:5:55Z</time></trkpt>
<trkpt lat="45.40798926260322" lon="4.677047235891223"><ele></ele><time>2013-8-23T1:5:58Z</time></trkpt>
<trkpt lat="45.40798909496516" lon="4.677303805947304"><ele></ele><time>2013-8-23T1:6:1Z</time></trkpt>
<trkpt lat="45.40810744743794" lon="4.677515616640449"><ele></ele><time>2013-8-23T1:6:4Z</time></trkpt>
<trkpt lat="45.40827076882124" lon="4.6776476316154"><ele></ele><time>2013-8-23T1:6:7Z</time></trkpt>
<trkpt lat="45.40845357812941" lon="4.67756406404078"><ele></ele><time>2013-8-23T1:6:10Z</time></trkpt>
<trkpt lat="45.40868022479117" lon="4.677522908896208"><ele></ele><time>2013-8-23T1:6:13Z</time></trkpt>
<trkpt lat="45.408884030766785" lon="4.67749466188252"><ele></ele><time>2013-8-23T1:6:16Z</time></trkpt>
<trkpt lat="45.40908825583756" lon="4.677480747923255"><ele></ele><time>2013-8-23T1:6:19Z</time></trkpt>
<trkpt lat="45.40926746092737" lon="4.677451997995377"><ele></ele><time>2013-8-23T1:6:22Z</time></trkpt>
<trkpt lat="45.409462549723685" lon="4.6773922350257635"><ele></ele><time>2013-8-23T1:6:25Z</time></trkpt>
<trkpt lat="45.4096481250599" lon="4.67732316814363"><ele></ele><time>2013-8-23T1:6:28Z</time></trkpt>
<trkpt lat="45.40982984472066" lon="4.677296848967671"><ele></ele><time>2013-8-23T1:6:31Z</time></trkpt>
<trkpt lat="45.409982982091606" lon="4.6774323005229235"><ele></ele><time>2013-8-23T1:6:34Z</time></trkpt>
<trkpt lat="45.40996919386089" lon="4.67772776260972"><ele></ele><time>2013-8-23T1:6:37Z</time></trkpt>
<trkpt lat="45.40996391326189" lon="4.678080976009369"><ele></ele><time>2013-8-23T1:6:40Z</time></trkpt>
<trkpt lat="45.40992837399244" lon="4.678355483338237"><ele></ele><time>2013-8-23T1:6:43Z</time></trkpt>
<trkpt lat="45.4098328622058" lon="4.678693693131208"><ele></ele><time>2013-8-23T1:6:46Z</time></trkpt>
<trkpt lat="45.409747450612485" lon="4.678997956216335"><ele></ele><time>2013-8-23T1:6:49Z</time></trkpt>
<trkpt lat="45.409706379286945" lon="4.679262489080429"><ele></ele><time>2013-8-23T1:6:52Z</time></trkpt>
<trkpt lat="45.409706169739366" lon="4.679609751328826"><ele></ele><time>2013-8-23T1:6:55Z</time></trkpt>
<trkpt lat="45.409727627411485" lon="4.679916361346841"><ele></ele><time>2013-8-23T1:6:58Z</time></trkpt>
<trkpt lat="45.40979170706123" lon="4.6804112289100885"><ele></ele><time>2013-8-23T1:7:1Z</time></trkpt>
<trkpt lat="45.409884955734015" lon="4.680637288838625"><ele></ele><time>2013-8-23T1:7:4Z</time></trkpt>
<trkpt lat="45.41009567677975" lon="4.6805958822369576"><ele></ele><time>2013-8-23T1:7:7Z</time></trkpt>
<trkpt lat="45.41027006227523" lon="4.680522121489048"><ele></ele><time>2013-8-23T1:7:10Z</time></trkpt>
<trkpt lat="45.410471269860864" lon="4.680438218638301"><ele></ele><time>2013-8-23T1:7:13Z</time></trkpt>
<trkpt lat="45.410600057803094" lon="4.68062287196517"><ele></ele><time>2013-8-23T1:7:16Z</time></trkpt>
<trkpt lat="45.410659736953676" lon="4.680904755368829"><ele></ele><time>2013-8-23T1:7:19Z</time></trkpt>
<trkpt lat="45.41081224568188" lon="4.681047163903713"><ele></ele><time>2013-8-23T1:7:22Z</time></trkpt>
<trkpt lat="45.41100092232227" lon="4.681185465306044"><ele></ele><time>2013-8-23T1:7:25Z</time></trkpt>
<trkpt lat="45.41118628811091" lon="4.681329634040594"><ele></ele><time>2013-8-23T1:7:28Z</time></trkpt>
<trkpt lat="45.41138665750623" lon="4.6814231760799885"><ele></ele><time>2013-8-23T1:7:31Z</time></trkpt>
<trkpt lat="45.4115488473326" lon="4.681554352864623"><ele></ele><time>2013-8-23T1:7:34Z</time></trkpt>
<trkpt lat="45.4117047926411" lon="4.681687792763114"><ele></ele><time>2013-8-23T1:7:37Z</time></trkpt>
<trkpt lat="45.41186694055796" lon="4.681883174926043"><ele></ele><time>2013-8-23T1:7:40Z</time></trkpt>
<trkpt lat="45.41207581758499" lon="4.681911338120699"><ele></ele><time>2013-8-23T1:7:43Z</time></trkpt>
<trkpt lat="45.41226491332054" lon="4.681943021714687"><ele></ele><time>2013-8-23T1:7:46Z</time></trkpt>
<trkpt lat="45.41238066740334" lon="4.682147540152073"><ele></ele><time>2013-8-23T1:7:49Z</time></trkpt>
<trkpt lat="45.412382343783975" lon="4.681878900155425"><ele></ele><time>2013-8-23T1:7:52Z</time></trkpt>
<trkpt lat="45.4125193040818" lon="4.681667760014534"><ele></ele><time>2013-8-23T1:7:55Z</time></trkpt>
<trkpt lat="45.41260174009949" lon="4.681396437808871"><ele></ele><time>2013-8-23T1:7:58Z</time></trkpt>
<trkpt lat="45.41266762185842" lon="4.681118493899703"><ele></ele><time>2013-8-23T1:8:1Z</time></trkpt>
<trkpt lat="45.412696078419685" lon="4.680802412331104"><ele></ele><time>2013-8-23T1:8:4Z</time></trkpt>
<trkpt lat="45.41273174341768" lon="4.6805446688085794"><ele></ele><time>2013-8-23T1:8:7Z</time></trkpt>
<trkpt lat="45.41279900819063" lon="4.680295726284385"><ele></ele><time>2013-8-23T1:8:10Z</time></trkpt>
<trkpt lat="45.41283836122602" lon="4.680034043267369"><ele></ele><time>2013-8-23T1:8:13Z</time></trkpt>
<trkpt lat="45.41284192353487" lon="4.679761128500104"><ele></ele><time>2013-8-23T1:8:16Z</time></trkpt>
<trkpt lat="45.41289359796792" lon="4.679513024166226"><ele></ele><time>2013-8-23T1:8:19Z</time></trkpt>
<trkpt lat="45.41298156604171" lon="4.679234744980931"><ele></ele><time>2013-8-23T1:8:22Z</time></trkpt>
<trkpt lat="45.41311035398394" lon="4.679004745557904"><ele></ele><time>2013-8-23T1:8:25Z</time></trkpt>
<trkpt lat="45.41328172199428" lon="4.6787746623158455"><ele></ele><time>2013-8-23T1:8:28Z</time></trkpt>
<trkpt lat="45.413474002853036" lon="4.678575592115521"><ele></ele><time>2013-8-23T1:8:31Z</time></trkpt>
<trkpt lat="45.41330225765705" lon="4.678671145811677"><ele></ele><time>2013-8-23T1:8:34Z</time></trkpt>
<trkpt lat="45.413156119175255" lon="4.678868371993303"><ele></ele><time>2013-8-23T1:8:37Z</time></trkpt>
<trkpt lat="45.41304966900498" lon="4.679084038361907"><ele></ele><time>2013-8-23T1:8:40Z</time></trkpt>
<trkpt lat="45.41294795460999" lon="4.679307751357555"><ele></ele><time>2013-8-23T1:8:43Z</time></trkpt>
<trkpt lat="45.4128946037963" lon="4.679572954773903"><ele></ele><time>2013-8-23T1:8:46Z</time></trkpt>
<trkpt lat="45.41286723688245" lon="4.6798646450042725"><ele></ele><time>2013-8-23T1:8:49Z</time></trkpt>
<trkpt lat="45.41283576283604" lon="4.680165890604258"><ele></ele><time>2013-8-23T1:8:52Z</time></trkpt>
<trkpt lat="45.412816065363586" lon="4.680430591106415"><ele></ele><time>2013-8-23T1:8:55Z</time></trkpt>
<trkpt lat="45.41278505232185" lon="4.68068934045732"><ele></ele><time>2013-8-23T1:8:58Z</time></trkpt>
<trkpt lat="45.41277423966676" lon="4.6809519454836845"><ele></ele><time>2013-8-23T1:9:1Z</time></trkpt>
<trkpt lat="45.412734844721854" lon="4.681242546066642"><ele></ele><time>2013-8-23T1:9:4Z</time></trkpt>
<trkpt lat="45.41261582169682" lon="4.681546054780483"><ele></ele><time>2013-8-23T1:9:7Z</time></trkpt>
<trkpt lat="45.412490596063435" lon="4.681756105273962"><ele></ele><time>2013-8-23T1:9:10Z</time></trkpt>
<trkpt lat="45.412375973537564" lon="4.682013345882297"><ele></ele><time>2013-8-23T1:9:13Z</time></trkpt>
<trkpt lat="45.412385570816696" lon="4.6822872664779425"><ele></ele><time>2013-8-23T1:9:16Z</time></trkpt>
<trkpt lat="45.41252290830016" lon="4.6825172659009695"><ele></ele><time>2013-8-23T1:9:19Z</time></trkpt>
<trkpt lat="45.41272164322436" lon="4.682637797668576"><ele></ele><time>2013-8-23T1:9:22Z</time></trkpt>
<trkpt lat="45.4129006806761" lon="4.682766292244196"><ele></ele><time>2013-8-23T1:9:25Z</time></trkpt>
<trkpt lat="45.41303868871182" lon="4.682934014126658"><ele></ele><time>2013-8-23T1:9:28Z</time></trkpt>
<trkpt lat="45.41293785441667" lon="4.683174239471555"><ele></ele><time>2013-8-23T1:9:31Z</time></trkpt>
<trkpt lat="45.41290801484138" lon="4.683451429009438"><ele></ele><time>2013-8-23T1:9:34Z</time></trkpt>
<trkpt lat="45.412831697613" lon="4.6837094239890575"><ele></ele><time>2013-8-23T1:9:37Z</time></trkpt>
<trkpt lat="45.412951139733195" lon="4.684285009279847"><ele></ele><time>2013-8-23T1:9:40Z</time></trkpt>
<trkpt lat="45.4130579251796" lon="4.684544764459133"><ele></ele><time>2013-8-23T1:9:43Z</time></trkpt>
<trkpt lat="45.41310511529446" lon="4.6847970597445965"><ele></ele><time>2013-8-23T1:9:46Z</time></trkpt>
<trkpt lat="45.413099960424006" lon="4.685068633407354"><ele></ele><time>2013-8-23T1:9:49Z</time></trkpt>
<trkpt lat="45.4130373056978" lon="4.685338782146573"><ele></ele><time>2013-8-23T1:9:52Z</time></trkpt>
<trkpt lat="45.41283492464572" lon="4.685642793774605"><ele></ele><time>2013-8-23T1:9:55Z</time></trkpt>
<trkpt lat="45.41270441841334" lon="4.685945967212319"><ele></ele><time>2013-8-23T1:9:58Z</time></trkpt>
<trkpt lat="45.41269511450082" lon="4.686213517561555"><ele></ele><time>2013-8-23T1:10:1Z</time></trkpt>
<trkpt lat="45.41270207148045" lon="4.686477379873395"><ele></ele><time>2013-8-23T1:10:4Z</time></trkpt>
<trkpt lat="45.412806551903486" lon="4.686693465337157"><ele></ele><time>2013-8-23T1:10:7Z</time></trkpt>
<trkpt lat="45.41293416637927" lon="4.686889601871371"><ele></ele><time>2013-8-23T1:10:10Z</time></trkpt>
<trkpt lat="45.413001640699804" lon="4.687134185805917"><ele></ele><time>2013-8-23T1:10:13Z</time></trkpt>
<trkpt lat="45.41329266037792" lon="4.687378266826272"><ele></ele><time>2013-8-23T1:10:16Z</time></trkpt>
<trkpt lat="45.41340657044202" lon="4.687582449987531"><ele></ele><time>2013-8-23T1:10:19Z</time></trkpt>
<trkpt lat="45.413383059203625" lon="4.687850419431925"><ele></ele><time>2013-8-23T1:10:22Z</time></trkpt>
<trkpt lat="45.413263658992946" lon="4.688064241781831"><ele></ele><time>2013-8-23T1:10:25Z</time></trkpt>
<trkpt lat="45.41324601508677" lon="4.688324416056275"><ele></ele><time>2013-8-23T1:10:28Z</time></trkpt>
<trkpt lat="45.41319828014821" lon="4.688603784888983"><ele></ele><time>2013-8-23T1:10:31Z</time></trkpt>
<trkpt lat="45.4130354616791" lon="4.688725909218192"><ele></ele><time>2013-8-23T1:10:34Z</time></trkpt>
<trkpt lat="45.41286832652986" lon="4.688844848424196"><ele></ele><time>2013-8-23T1:10:37Z</time></trkpt>
<trkpt lat="45.41269834153354" lon="4.688934786245227"><ele></ele><time>2013-8-23T1:10:40Z</time></trkpt>
<trkpt lat="45.412505054846406" lon="4.689066465944052"><ele></ele><time>2013-8-23T1:10:43Z</time></trkpt>
<trkpt lat="45.4123255982995" lon="4.689104184508324"><ele></ele><time>2013-8-23T1:10:46Z</time></trkpt>
<trkpt lat="45.4121305514127" lon="4.689079709351063"><ele></ele><time>2013-8-23T1:10:49Z</time></trkpt>
<trkpt lat="45.41193370241672" lon="4.689063113182783"><ele></ele><time>2013-8-23T1:10:52Z</time></trkpt>
<trkpt lat="45.41174456477165" lon="4.689052803441882"><ele></ele><time>2013-8-23T1:10:55Z</time></trkpt>
<trkpt lat="45.41147626005113" lon="4.689040733501315"><ele></ele><time>2013-8-23T1:10:58Z</time></trkpt>
<trkpt lat="45.41128293145448" lon="4.689019024372101"><ele></ele><time>2013-8-23T1:11:1Z</time></trkpt>
<trkpt lat="45.41102309245616" lon="4.688989687711"><ele></ele><time>2013-8-23T1:11:4Z</time></trkpt>
<trkpt lat="45.41079661343247" lon="4.688977869227529"><ele></ele><time>2013-8-23T1:11:7Z</time></trkpt>
<trkpt lat="45.410602991469204" lon="4.689018437638879"><ele></ele><time>2013-8-23T1:11:10Z</time></trkpt>
<trkpt lat="45.41042223572731" lon="4.6890344470739365"><ele></ele><time>2013-8-23T1:11:13Z</time></trkpt>
<trkpt lat="45.41021587327123" lon="4.689050875604153"><ele></ele><time>2013-8-23T1:11:16Z</time></trkpt>
<trkpt lat="45.41017635259777" lon="4.689324293285608"><ele></ele><time>2013-8-23T1:11:19Z</time></trkpt>
<trkpt lat="45.410225302912295" lon="4.689619168639183"><ele></ele><time>2013-8-23T1:11:22Z</time></trkpt>
<trkpt lat="45.41024520993233" lon="4.689891915768385"><ele></ele><time>2013-8-23T1:11:25Z</time></trkpt>
<trkpt lat="45.41023334953934" lon="4.690214283764362"><ele></ele><time>2013-8-23T1:11:28Z</time></trkpt>
<trkpt lat="45.41021293960512" lon="4.690515613183379"><ele></ele><time>2013-8-23T1:11:31Z</time></trkpt>
<trkpt lat="45.410191817209125" lon="4.690845105797052"><ele></ele><time>2013-8-23T1:11:34Z</time></trkpt>
<trkpt lat="45.41014278307557" lon="4.691142747178674"><ele></ele><time>2013-8-23T1:11:37Z</time></trkpt>
<trkpt lat="45.41003750637174" lon="4.691362855955958"><ele></ele><time>2013-8-23T1:11:40Z</time></trkpt>
<trkpt lat="45.409925314597785" lon="4.691576259210706"><ele></ele><time>2013-8-23T1:11:43Z</time></trkpt>
<trkpt lat="45.409760694019496" lon="4.691790584474802"><ele></ele><time>2013-8-23T1:11:46Z</time></trkpt>
<trkpt lat="45.40960089303553" lon="4.691997366026044"><ele></ele><time>2013-8-23T1:11:49Z</time></trkpt>
<trkpt lat="45.40941012091935" lon="4.692156370729208"><ele></ele><time>2013-8-23T1:11:52Z</time></trkpt>
<trkpt lat="45.409199190326035" lon="4.692207584157586"><ele></ele><time>2013-8-23T1:11:55Z</time></trkpt>
<trkpt lat="45.40896378457546" lon="4.692283608019352"><ele></ele><time>2013-8-23T1:11:58Z</time></trkpt>
<trkpt lat="45.408752895891666" lon="4.6923441253602505"><ele></ele><time>2013-8-23T1:12:1Z</time></trkpt>
<trkpt lat="45.40861685760319" lon="4.6925379149615765"><ele></ele><time>2013-8-23T1:12:4Z</time></trkpt>
<trkpt lat="45.40856899693608" lon="4.692808482795954"><ele></ele><time>2013-8-23T1:12:7Z</time></trkpt>
<trkpt lat="45.40847587399185" lon="4.69303697347641"><ele></ele><time>2013-8-23T1:12:10Z</time></trkpt>
<trkpt lat="45.408350438810885" lon="4.693232774734497"><ele></ele><time>2013-8-23T1:12:13Z</time></trkpt>
<trkpt lat="45.40824092924595" lon="4.693493116647005"><ele></ele><time>2013-8-23T1:12:16Z</time></trkpt>
<trkpt lat="45.408157822676" lon="4.693763852119446"><ele></ele><time>2013-8-23T1:12:19Z</time></trkpt>
<trkpt lat="45.40806645993143" lon="4.694052189588547"><ele></ele><time>2013-8-23T1:12:22Z</time></trkpt>
<trkpt lat="45.40797685738653" lon="4.694281183183193"><ele></ele><time>2013-8-23T1:12:25Z</time></trkpt>
<trkpt lat="45.407888973131776" lon="4.694549152627587"><ele></ele><time>2013-8-23T1:12:28Z</time></trkpt>
<trkpt lat="45.40779978968203" lon="4.694791724905372"><ele></ele><time>2013-8-23T1:12:31Z</time></trkpt>
<trkpt lat="45.40774706751108" lon="4.695038320496678"><ele></ele><time>2013-8-23T1:12:34Z</time></trkpt>
<trkpt lat="45.407664673402905" lon="4.695304529741406"><ele></ele><time>2013-8-23T1:12:37Z</time></trkpt>
<trkpt lat="45.40755072142929" lon="4.695548443123698"><ele></ele><time>2013-8-23T1:12:40Z</time></trkpt>
<trkpt lat="45.40744678582996" lon="4.695794535800815"><ele></ele><time>2013-8-23T1:12:43Z</time></trkpt>
<trkpt lat="45.407341718673706" lon="4.696030570194125"><ele></ele><time>2013-8-23T1:12:46Z</time></trkpt>
<trkpt lat="45.40726942475885" lon="4.696278339251876"><ele></ele><time>2013-8-23T1:12:49Z</time></trkpt>
<trkpt lat="45.407162555493414" lon="4.696503560990095"><ele></ele><time>2013-8-23T1:12:52Z</time></trkpt>
<trkpt lat="45.40703251026571" lon="4.696757113561034"><ele></ele><time>2013-8-23T1:12:55Z</time></trkpt>
<trkpt lat="45.40692283306271" lon="4.696982502937317"><ele></ele><time>2013-8-23T1:12:58Z</time></trkpt>
<trkpt lat="45.4068189393729" lon="4.6972082275897264"><ele></ele><time>2013-8-23T1:13:1Z</time></trkpt>
<trkpt lat="45.406691785901785" lon="4.697408890351653"><ele></ele><time>2013-8-23T1:13:4Z</time></trkpt>
<trkpt lat="45.406571882776916" lon="4.697631513699889"><ele></ele><time>2013-8-23T1:13:7Z</time></trkpt>
<trkpt lat="45.40645336266607" lon="4.697836535051465"><ele></ele><time>2013-8-23T1:13:10Z</time></trkpt>
<trkpt lat="45.406326754018664" lon="4.698043232783675"><ele></ele><time>2013-8-23T1:13:13Z</time></trkpt>
<trkpt lat="45.406122277490795" lon="4.698028480634093"><ele></ele><time>2013-8-23T1:13:16Z</time></trkpt>
<trkpt lat="45.40605283342302" lon="4.6977730840444565"><ele></ele><time>2013-8-23T1:13:19Z</time></trkpt>
<trkpt lat="45.406070058234036" lon="4.6974818129092455"><ele></ele><time>2013-8-23T1:13:22Z</time></trkpt>
<trkpt lat="45.40608619339764" lon="4.697223482653499"><ele></ele><time>2013-8-23T1:13:25Z</time></trkpt>
<trkpt lat="45.40605916175991" lon="4.6969222370535135"><ele></ele><time>2013-8-23T1:13:28Z</time></trkpt>
<trkpt lat="45.40604746900499" lon="4.696627864614129"><ele></ele><time>2013-8-23T1:13:31Z</time></trkpt>
<trkpt lat="45.40605999995023" lon="4.696341287344694"><ele></ele><time>2013-8-23T1:13:34Z</time></trkpt>
<trkpt lat="45.40607722476125" lon="4.696071809157729"><ele></ele><time>2013-8-23T1:13:37Z</time></trkpt>
<trkpt lat="45.406068339943886" lon="4.695790261030197"><ele></ele><time>2013-8-23T1:13:40Z</time></trkpt>
<trkpt lat="45.406088288873434" lon="4.695502175018191"><ele></ele><time>2013-8-23T1:13:43Z</time></trkpt>
<trkpt lat="45.40612688753754" lon="4.695225404575467"><ele></ele><time>2013-8-23T1:13:46Z</time></trkpt>
<trkpt lat="45.40616267826408" lon="4.694956429302692"><ele></ele><time>2013-8-23T1:13:49Z</time></trkpt>
<trkpt lat="45.406192895025015" lon="4.694657698273659"><ele></ele><time>2013-8-23T1:13:52Z</time></trkpt>
<trkpt lat="45.40627143345773" lon="4.694384951144457"><ele></ele><time>2013-8-23T1:13:55Z</time></trkpt>
<trkpt lat="45.406367615796626" lon="4.6941236872226"><ele></ele><time>2013-8-23T1:13:58Z</time></trkpt>
<trkpt lat="45.40646459441632" lon="4.693858148530126"><ele></ele><time>2013-8-23T1:14:1Z</time></trkpt>
<trkpt lat="45.40641677565873" lon="4.69361113384366"><ele></ele><time>2013-8-23T1:14:4Z</time></trkpt>
<trkpt lat="45.406353450380266" lon="4.693356323987246"><ele></ele><time>2013-8-23T1:14:7Z</time></trkpt>
<trkpt lat="45.40628207847476" lon="4.69311760738492"><ele></ele><time>2013-8-23T1:14:10Z</time></trkpt>
<trkpt lat="45.40614298079163" lon="4.692903030663729"><ele></ele><time>2013-8-23T1:14:13Z</time></trkpt>
<trkpt lat="45.40594206657261" lon="4.692874448373914"><ele></ele><time>2013-8-23T1:14:16Z</time></trkpt>
<trkpt lat="45.40575372520834" lon="4.692831113934517"><ele></ele><time>2013-8-23T1:14:19Z</time></trkpt>
<trkpt lat="45.40556789841503" lon="4.692762633785605"><ele></ele><time>2013-8-23T1:14:22Z</time></trkpt>
<trkpt lat="45.40537553373724" lon="4.692668421193957"><ele></ele><time>2013-8-23T1:14:25Z</time></trkpt>
<trkpt lat="45.405206345021725" lon="4.692560797557235"><ele></ele><time>2013-8-23T1:14:28Z</time></trkpt>
<trkpt lat="45.40502772666514" lon="4.692502962425351"><ele></ele><time>2013-8-23T1:14:31Z</time></trkpt>
<trkpt lat="45.40485258679837" lon="4.6926265116781"><ele></ele><time>2013-8-23T1:14:34Z</time></trkpt>
<trkpt lat="45.404681763611734" lon="4.692825078964233"><ele></ele><time>2013-8-23T1:14:37Z</time></trkpt>
<trkpt lat="45.40463637560606" lon="4.693132359534502"><ele></ele><time>2013-8-23T1:14:40Z</time></trkpt>
<trkpt lat="45.40463201701641" lon="4.693427234888077"><ele></ele><time>2013-8-23T1:14:43Z</time></trkpt>
<trkpt lat="45.40453357156366" lon="4.693652121350169"><ele></ele><time>2013-8-23T1:14:46Z</time></trkpt>
<trkpt lat="45.404424774460495" lon="4.693890670314431"><ele></ele><time>2013-8-23T1:14:49Z</time></trkpt>
<trkpt lat="45.404319539666176" lon="4.694135254248977"><ele></ele><time>2013-8-23T1:14:52Z</time></trkpt>
<trkpt lat="45.40416833013296" lon="4.694334743544459"><ele></ele><time>2013-8-23T1:14:55Z</time></trkpt>
<trkpt lat="45.403948849998415" lon="4.694398110732436"><ele></ele><time>2013-8-23T1:14:58Z</time></trkpt>
<trkpt lat="45.403769267722964" lon="4.694465333595872"><ele></ele><time>2013-8-23T1:15:1Z</time></trkpt>
<trkpt lat="45.40356403682381" lon="4.694510428234935"><ele></ele><time>2013-8-23T1:15:4Z</time></trkpt>
<trkpt lat="45.40347405709326" lon="4.69473690725863"><ele></ele><time>2013-8-23T1:15:7Z</time></trkpt>
<trkpt lat="45.40345771238208" lon="4.695066986605525"><ele></ele><time>2013-8-23T1:15:10Z</time></trkpt>
<trkpt lat="45.40340268518776" lon="4.695373177528381"><ele></ele><time>2013-8-23T1:15:13Z</time></trkpt>
<trkpt lat="45.403369911946356" lon="4.6956732496619225"><ele></ele><time>2013-8-23T1:15:16Z</time></trkpt>
<trkpt lat="45.403336929157376" lon="4.695940632373095"><ele></ele><time>2013-8-23T1:15:19Z</time></trkpt>
<trkpt lat="45.40323068853468" lon="4.696208769455552"><ele></ele><time>2013-8-23T1:15:22Z</time></trkpt>
<trkpt lat="45.40311702992767" lon="4.696459472179413"><ele></ele><time>2013-8-23T1:15:25Z</time></trkpt>
<trkpt lat="45.40303769521415" lon="4.696709923446178"><ele></ele><time>2013-8-23T1:15:28Z</time></trkpt>
<trkpt lat="45.40311179123819" lon="4.696954842656851"><ele></ele><time>2013-8-23T1:15:31Z</time></trkpt>
<trkpt lat="45.40319623891264" lon="4.697234630584717"><ele></ele><time>2013-8-23T1:15:34Z</time></trkpt>
<trkpt lat="45.40326383896172" lon="4.697517268359661"><ele></ele><time>2013-8-23T1:15:37Z</time></trkpt>
<trkpt lat="45.40327930357307" lon="4.697846006602049"><ele></ele><time>2013-8-23T1:15:40Z</time></trkpt>
<trkpt lat="45.40333013981581" lon="4.698170637711883"><ele></ele><time>2013-8-23T1:15:43Z</time></trkpt>
<trkpt lat="45.403378629125655" lon="4.698487222194672"><ele></ele><time>2013-8-23T1:15:46Z</time></trkpt>
<trkpt lat="45.40343260858208" lon="4.6987582091242075"><ele></ele><time>2013-8-23T1:15:49Z</time></trkpt>
<trkpt lat="45.4034860432148" lon="4.699069680646062"><ele></ele><time>2013-8-23T1:15:52Z</time></trkpt>
<trkpt lat="45.40352954529226" lon="4.699392048642039"><ele></ele><time>2013-8-23T1:15:55Z</time></trkpt>
<trkpt lat="45.40356961078942" lon="4.699652390554547"><ele></ele><time>2013-8-23T1:15:58Z</time></trkpt>
<trkpt lat="45.403621243312955" lon="4.699932178482413"><ele></ele><time>2013-8-23T1:16:1Z</time></trkpt>
<trkpt lat="45.40371248032898" lon="4.700182881206274"><ele></ele><time>2013-8-23T1:16:4Z</time></trkpt>
<trkpt lat="45.40381566155702" lon="4.7004336677491665"><ele></ele><time>2013-8-23T1:16:7Z</time></trkpt>
<trkpt lat="45.403933050110936" lon="4.700688477605581"><ele></ele><time>2013-8-23T1:16:10Z</time></trkpt>
<trkpt lat="45.404040212742984" lon="4.700974719598889"><ele></ele><time>2013-8-23T1:16:13Z</time></trkpt>
<trkpt lat="45.40413346141577" lon="4.7012644819915295"><ele></ele><time>2013-8-23T1:16:16Z</time></trkpt>
<trkpt lat="45.40422088466585" lon="4.701568577438593"><ele></ele><time>2013-8-23T1:16:19Z</time></trkpt>
<trkpt lat="45.40428567677736" lon="4.701863871887326"><ele></ele><time>2013-8-23T1:16:22Z</time></trkpt>
<trkpt lat="45.40433316025883" lon="4.702130751684308"><ele></ele><time>2013-8-23T1:16:25Z</time></trkpt>
<trkpt lat="45.40436383802444" lon="4.702399056404829"><ele></ele><time>2013-8-23T1:16:28Z</time></trkpt>
<trkpt lat="45.40445800870657" lon="4.702662667259574"><ele></ele><time>2013-8-23T1:16:31Z</time></trkpt>
<trkpt lat="45.40458629373461" lon="4.702943544834852"><ele></ele><time>2013-8-23T1:16:34Z</time></trkpt>
<trkpt lat="45.404702886007726" lon="4.703173208981752"><ele></ele><time>2013-8-23T1:16:37Z</time></trkpt>
<trkpt lat="45.404873164370656" lon="4.703379655256867"><ele></ele><time>2013-8-23T1:16:40Z</time></trkpt>
<trkpt lat="45.40499239694327" lon="4.703669585287571"><ele></ele><time>2013-8-23T1:16:43Z</time></trkpt>
<trkpt lat="45.40509541053325" lon="4.703919030725956"><ele></ele><time>2013-8-23T1:16:46Z</time></trkpt>
<trkpt lat="45.40519607719034" lon="4.704171074554324"><ele></ele><time>2013-8-23T1:16:49Z</time></trkpt>
<trkpt lat="45.405314094386995" lon="4.704457903280854"><ele></ele><time>2013-8-23T1:16:52Z</time></trkpt>
<trkpt lat="45.405437224544585" lon="4.704703660681844"><ele></ele><time>2013-8-23T1:16:55Z</time></trkpt>
<trkpt lat="45.405523935332894" lon="4.704959141090512"><ele></ele><time>2013-8-23T1:16:58Z</time></trkpt>
<trkpt lat="45.40557250846177" lon="4.7052347380667925"><ele></ele><time>2013-8-23T1:17:1Z</time></trkpt>
<trkpt lat="45.40559103246778" lon="4.705514274537563"><ele></ele><time>2013-8-23T1:17:4Z</time></trkpt>
<trkpt lat="45.405604150146246" lon="4.705811413004994"><ele></ele><time>2013-8-23T1:17:7Z</time></trkpt>
<trkpt lat="45.405613579787314" lon="4.7061108984053135"><ele></ele><time>2013-8-23T1:17:10Z</time></trkpt>
<trkpt lat="45.4056505439803" lon="4.706390434876084"><ele></ele><time>2013-8-23T1:17:13Z</time></trkpt>
<trkpt lat="45.40566470939666" lon="4.706678353250027"><ele></ele><time>2013-8-23T1:17:16Z</time></trkpt>
<trkpt lat="45.40567464195192" lon="4.706980688497424"><ele></ele><time>2013-8-23T1:17:19Z</time></trkpt>
<trkpt lat="45.405687633901834" lon="4.7072497475892305"><ele></ele><time>2013-8-23T1:17:22Z</time></trkpt>
<trkpt lat="45.40577229112387" lon="4.707549065351486"><ele></ele><time>2013-8-23T1:17:25Z</time></trkpt>
<trkpt lat="45.405863570049405" lon="4.70780286937952"><ele></ele><time>2013-8-23T1:17:28Z</time></trkpt>
<trkpt lat="45.40594617370516" lon="4.7080902848392725"><ele></ele><time>2013-8-23T1:17:31Z</time></trkpt>
<trkpt lat="45.406035860069096" lon="4.7083821427077055"><ele></ele><time>2013-8-23T1:17:34Z</time></trkpt>
<trkpt lat="45.40611372794956" lon="4.708650698885322"><ele></ele><time>2013-8-23T1:17:37Z</time></trkpt>
<trkpt lat="45.406184890307486" lon="4.70888857729733"><ele></ele><time>2013-8-23T1:17:40Z</time></trkpt>
<trkpt lat="45.406227889470756" lon="4.709144560620189"><ele></ele><time>2013-8-23T1:17:43Z</time></trkpt>
<trkpt lat="45.40628488641232" lon="4.709414793178439"><ele></ele><time>2013-8-23T1:17:46Z</time></trkpt>
<trkpt lat="45.40634594857693" lon="4.7096573654562235"><ele></ele><time>2013-8-23T1:17:49Z</time></trkpt>
<trkpt lat="45.40641706902534" lon="4.709936650469899"><ele></ele><time>2013-8-23T1:17:52Z</time></trkpt>
<trkpt lat="45.40651061106473" lon="4.710215767845511"><ele></ele><time>2013-8-23T1:17:55Z</time></trkpt>
<trkpt lat="45.40659074205905" lon="4.71051961183548"><ele></ele><time>2013-8-23T1:17:58Z</time></trkpt>
<trkpt lat="45.40668273344636" lon="4.710796885192394"><ele></ele><time>2013-8-23T1:18:1Z</time></trkpt>
<trkpt lat="45.40675905067474" lon="4.711104668676853"><ele></ele><time>2013-8-23T1:18:4Z</time></trkpt>
<trkpt lat="45.40682862047106" lon="4.711426617577672"><ele></ele><time>2013-8-23T1:18:7Z</time></trkpt>
<trkpt lat="45.4068895149976" lon="4.711680756881833"><ele></ele><time>2013-8-23T1:18:10Z</time></trkpt>
<trkpt lat="45.40697400458157" lon="4.711931208148599"><ele></ele><time>2013-8-23T1:18:13Z</time></trkpt>
<trkpt lat="45.40706695988774" lon="4.712161375209689"><ele></ele><time>2013-8-23T1:18:16Z</time></trkpt>
<trkpt lat="45.407167500816286" lon="4.712448371574283"><ele></ele><time>2013-8-23T1:18:19Z</time></trkpt>
<trkpt lat="45.407267161644995" lon="4.712676024064422"><ele></ele><time>2013-8-23T1:18:22Z</time></trkpt>
<trkpt lat="45.40728229098022" lon="4.712947513908148"><ele></ele><time>2013-8-23T1:18:25Z</time></trkpt>
<trkpt lat="45.40726703591645" lon="4.713257560506463"><ele></ele><time>2013-8-23T1:18:28Z</time></trkpt>
<trkpt lat="45.40725676808506" lon="4.713551681488752"><ele></ele><time>2013-8-23T1:18:31Z</time></trkpt>
<trkpt lat="45.40728074032813" lon="4.713820489123464"><ele></ele><time>2013-8-23T1:18:34Z</time></trkpt>
<trkpt lat="45.40732813999057" lon="4.7141041327267885"><ele></ele><time>2013-8-23T1:18:37Z</time></trkpt>
<trkpt lat="45.40735039394349" lon="4.714420046657324"><ele></ele><time>2013-8-23T1:18:40Z</time></trkpt>
<trkpt lat="45.407383418641984" lon="4.714715173467994"><ele></ele><time>2013-8-23T1:18:43Z</time></trkpt>
<trkpt lat="45.40747587103397" lon="4.714957997202873"><ele></ele><time>2013-8-23T1:18:46Z</time></trkpt>
<trkpt lat="45.40748320519924" lon="4.715292686596513"><ele></ele><time>2013-8-23T1:18:49Z</time></trkpt>
<trkpt lat="45.4075095243752" lon="4.715614467859268"><ele></ele><time>2013-8-23T1:18:52Z</time></trkpt>
<trkpt lat="45.40753353852779" lon="4.715897776186466"><ele></ele><time>2013-8-23T1:18:55Z</time></trkpt>
<trkpt lat="45.407552774995565" lon="4.716220647096634"><ele></ele><time>2013-8-23T1:18:58Z</time></trkpt>
<trkpt lat="45.407571592368186" lon="4.716575620695949"><ele></ele><time>2013-8-23T1:19:1Z</time></trkpt>
<trkpt lat="45.407543890178204" lon="4.716941574588418"><ele></ele><time>2013-8-23T1:19:4Z</time></trkpt>
<trkpt lat="45.40749355684966" lon="4.717193199321628"><ele></ele><time>2013-8-23T1:19:7Z</time></trkpt>
<trkpt lat="45.407413970679045" lon="4.717540964484215"><ele></ele><time>2013-8-23T1:19:10Z</time></trkpt>
<trkpt lat="45.40733551606536" lon="4.717866936698556"><ele></ele><time>2013-8-23T1:19:13Z</time></trkpt>
<trkpt lat="45.40727189742029" lon="4.718133145943284"><ele></ele><time>2013-8-23T1:19:16Z</time></trkpt>
<trkpt lat="45.40719402953982" lon="4.7184316255152225"><ele></ele><time>2013-8-23T1:19:19Z</time></trkpt>
<trkpt lat="45.4071202268824" lon="4.718742594122887"><ele></ele><time>2013-8-23T1:19:22Z</time></trkpt>
<trkpt lat="45.40709042921662" lon="4.7190077137202024"><ele></ele><time>2013-8-23T1:19:25Z</time></trkpt>
<trkpt lat="45.40712031070143" lon="4.719311809167266"><ele></ele><time>2013-8-23T1:19:28Z</time></trkpt>
<trkpt lat="45.40715408977121" lon="4.719665357843041"><ele></ele><time>2013-8-23T1:19:31Z</time></trkpt>
<trkpt lat="45.40718183387071" lon="4.719985043630004"><ele></ele><time>2013-8-23T1:19:34Z</time></trkpt>
<trkpt lat="45.407038922421634" lon="4.719809610396624"><ele></ele><time>2013-8-23T1:19:37Z</time></trkpt>
<trkpt lat="45.40682313032448" lon="4.719739202409983"><ele></ele><time>2013-8-23T1:19:40Z</time></trkpt>
<trkpt lat="45.40664329659194" lon="4.719696203246713"><ele></ele><time>2013-8-23T1:19:43Z</time></trkpt>
<trkpt lat="45.40642444510013" lon="4.719722354784608"><ele></ele><time>2013-8-23T1:19:46Z</time></trkpt>
<trkpt lat="45.40622633881867" lon="4.719693269580603"><ele></ele><time>2013-8-23T1:19:49Z</time></trkpt>
<trkpt lat="45.40606058668345" lon="4.719591848552227"><ele></ele><time>2013-8-23T1:19:52Z</time></trkpt>
<trkpt lat="45.40588343515992" lon="4.719325974583626"><ele></ele><time>2013-8-23T1:19:55Z</time></trkpt>
<trkpt lat="45.40574970189482" lon="4.719094047322869"><ele></ele><time>2013-8-23T1:19:58Z</time></trkpt>
<trkpt lat="45.405621249228716" lon="4.718810319900513"><ele></ele><time>2013-8-23T1:20:1Z</time></trkpt>
<trkpt lat="45.40548705495894" lon="4.718598257750273"><ele></ele><time>2013-8-23T1:20:4Z</time></trkpt>
<trkpt lat="45.4053164832294" lon="4.718407401815057"><ele></ele><time>2013-8-23T1:20:7Z</time></trkpt>
<trkpt lat="45.405157562345266" lon="4.718275051563978"><ele></ele><time>2013-8-23T1:20:10Z</time></trkpt>
<trkpt lat="45.404974250122905" lon="4.7181241773068905"><ele></ele><time>2013-8-23T1:20:13Z</time></trkpt>
<trkpt lat="45.40480263065547" lon="4.717943547293544"><ele></ele><time>2013-8-23T1:20:16Z</time></trkpt>
<trkpt lat="45.40467677637935" lon="4.7177183255553246"><ele></ele><time>2013-8-23T1:20:19Z</time></trkpt>
<trkpt lat="45.40460641030222" lon="4.717447003349662"><ele></ele><time>2013-8-23T1:20:22Z</time></trkpt>
<trkpt lat="45.40442502591759" lon="4.71751824952662"><ele></ele><time>2013-8-23T1:20:25Z</time></trkpt>
<trkpt lat="45.40427373256534" lon="4.717667028307915"><ele></ele><time>2013-8-23T1:20:28Z</time></trkpt>
<trkpt lat="45.40422972757369" lon="4.717362262308598"><ele></ele><time>2013-8-23T1:20:31Z</time></trkpt>
<trkpt lat="45.40425110142678" lon="4.717104015871882"><ele></ele><time>2013-8-23T1:20:34Z</time></trkpt>
<trkpt lat="45.40429267566651" lon="4.716796902939677"><ele></ele><time>2013-8-23T1:20:37Z</time></trkpt>
<trkpt lat="45.404301644302905" lon="4.716511247679591"><ele></ele><time>2013-8-23T1:20:40Z</time></trkpt>
<trkpt lat="45.40429351385683" lon="4.716236740350723"><ele></ele><time>2013-8-23T1:20:43Z</time></trkpt>
<trkpt lat="45.40437909308821" lon="4.715955359861255"><ele></ele><time>2013-8-23T1:20:46Z</time></trkpt>
<trkpt lat="45.40452066343278" lon="4.715628549456596"><ele></ele><time>2013-8-23T1:20:49Z</time></trkpt>
<trkpt lat="45.40434254799038" lon="4.715703651309013"><ele></ele><time>2013-8-23T1:20:52Z</time></trkpt>
<trkpt lat="45.404132162220776" lon="4.715662831440568"><ele></ele><time>2013-8-23T1:20:55Z</time></trkpt>
<trkpt lat="45.40388355497271" lon="4.715893333777785"><ele></ele><time>2013-8-23T1:20:58Z</time></trkpt>
<trkpt lat="45.403803759254515" lon="4.716172618791461"><ele></ele><time>2013-8-23T1:21:1Z</time></trkpt>
<trkpt lat="45.40365317836404" lon="4.71633673645556"><ele></ele><time>2013-8-23T1:21:4Z</time></trkpt>
<trkpt lat="45.40353985503316" lon="4.716599760577083"><ele></ele><time>2013-8-23T1:21:7Z</time></trkpt>
<trkpt lat="45.403347574174404" lon="4.716815175488591"><ele></ele><time>2013-8-23T1:21:10Z</time></trkpt>
<trkpt lat="45.40318341460079" lon="4.7169911954551935"><ele></ele><time>2013-8-23T1:21:13Z</time></trkpt>
<trkpt lat="45.402816622518" lon="4.717304930090904"><ele></ele><time>2013-8-23T1:21:16Z</time></trkpt>
<trkpt lat="45.402433401905" lon="4.7175169084221125"><ele></ele><time>2013-8-23T1:21:19Z</time></trkpt>
<trkpt lat="45.40228495839983" lon="4.7176868095994"><ele></ele><time>2013-8-23T1:21:22Z</time></trkpt>
<trkpt lat="45.40221203584224" lon="4.71793457865715"><ele></ele><time>2013-8-23T1:21:25Z</time></trkpt>
<trkpt lat="45.402133371680975" lon="4.718199949711561"><ele></ele><time>2013-8-23T1:21:28Z</time></trkpt>
<trkpt lat="45.401992639526725" lon="4.71841829828918"><ele></ele><time>2013-8-23T1:21:31Z</time></trkpt>
<trkpt lat="45.40187763981521" lon="4.71865089610219"><ele></ele><time>2013-8-23T1:21:34Z</time></trkpt>
<trkpt lat="45.40179683826864" lon="4.718899838626385"><ele></ele><time>2013-8-23T1:21:37Z</time></trkpt>
<trkpt lat="45.401711678132415" lon="4.719134448096156"><ele></ele><time>2013-8-23T1:21:40Z</time></trkpt>
<trkpt lat="45.40162949357182" lon="4.7193787805736065"><ele></ele><time>2013-8-23T1:21:43Z</time></trkpt>
<trkpt lat="45.40153000038117" lon="4.719629315659404"><ele></ele><time>2013-8-23T1:21:46Z</time></trkpt>
<trkpt lat="45.401403307914734" lon="4.71987733617425"><ele></ele><time>2013-8-23T1:21:49Z</time></trkpt>
<trkpt lat="45.40127808228135" lon="4.720098366960883"><ele></ele><time>2013-8-23T1:21:52Z</time></trkpt>
<trkpt lat="45.401137601584196" lon="4.720318894833326"><ele></ele><time>2013-8-23T1:21:55Z</time></trkpt>
<trkpt lat="45.40099724661559" lon="4.720552330836654"><ele></ele><time>2013-8-23T1:21:58Z</time></trkpt>
<trkpt lat="45.40087767876685" lon="4.720821138471365"><ele></ele><time>2013-8-23T1:22:1Z</time></trkpt>
<trkpt lat="45.40077068377286" lon="4.721034541726112"><ele></ele><time>2013-8-23T1:22:4Z</time></trkpt>
<trkpt lat="45.40063674096018" lon="4.7212910279631615"><ele></ele><time>2013-8-23T1:22:7Z</time></trkpt>
<trkpt lat="45.400512563064694" lon="4.721489427611232"><ele></ele><time>2013-8-23T1:22:10Z</time></trkpt>
<trkpt lat="45.400350792333484" lon="4.721634266898036"><ele></ele><time>2013-8-23T1:22:13Z</time></trkpt>
<trkpt lat="45.40022728499025" lon="4.72184699960053"><ele></ele><time>2013-8-23T1:22:16Z</time></trkpt>
<trkpt lat="45.400108261965215" lon="4.722063671797514"><ele></ele><time>2013-8-23T1:22:19Z</time></trkpt>
<trkpt lat="45.399968745186925" lon="4.722266849130392"><ele></ele><time>2013-8-23T1:22:22Z</time></trkpt>
<trkpt lat="45.39984142407775" lon="4.722454939037561"><ele></ele><time>2013-8-23T1:22:25Z</time></trkpt>
<trkpt lat="45.39968132972717" lon="4.722671778872609"><ele></ele><time>2013-8-23T1:22:28Z</time></trkpt>
<trkpt lat="45.39953204803169" lon="4.722837656736374"><ele></ele><time>2013-8-23T1:22:31Z</time></trkpt>
<trkpt lat="45.399349657818675" lon="4.723018538206816"><ele></ele><time>2013-8-23T1:22:34Z</time></trkpt>
<trkpt lat="45.39919543080032" lon="4.723198413848877"><ele></ele><time>2013-8-23T1:22:37Z</time></trkpt>
<trkpt lat="45.39907552767545" lon="4.723422294482589"><ele></ele><time>2013-8-23T1:22:40Z</time></trkpt>
<trkpt lat="45.398961952887475" lon="4.723654808476567"><ele></ele><time>2013-8-23T1:22:43Z</time></trkpt>
<trkpt lat="45.398815856315196" lon="4.723872570320964"><ele></ele><time>2013-8-23T1:22:46Z</time></trkpt>
<trkpt lat="45.39865161292255" lon="4.724082117900252"><ele></ele><time>2013-8-23T1:22:49Z</time></trkpt>
<trkpt lat="45.39848083164543" lon="4.724285714328289"><ele></ele><time>2013-8-23T1:22:52Z</time></trkpt>
<trkpt lat="45.398310301825404" lon="4.724487802013755"><ele></ele><time>2013-8-23T1:22:55Z</time></trkpt>
<trkpt lat="45.3981377184391" lon="4.724693996831775"><ele></ele><time>2013-8-23T1:22:58Z</time></trkpt>
<trkpt lat="45.39800603874028" lon="4.7248719446361065"><ele></ele><time>2013-8-23T1:23:1Z</time></trkpt>
<trkpt lat="45.39786706678569" lon="4.725039163604379"><ele></ele><time>2013-8-23T1:23:4Z</time></trkpt>
<trkpt lat="45.397708816453815" lon="4.725206047296524"><ele></ele><time>2013-8-23T1:23:7Z</time></trkpt>
<trkpt lat="45.39755203295499" lon="4.725377792492509"><ele></ele><time>2013-8-23T1:23:10Z</time></trkpt>
<trkpt lat="45.39739399217069" lon="4.725586585700512"><ele></ele><time>2013-8-23T1:23:13Z</time></trkpt>
<trkpt lat="45.39721818175167" lon="4.725810717791319"><ele></ele><time>2013-8-23T1:23:16Z</time></trkpt>
<trkpt lat="45.39704019203782" lon="4.725978942587972"><ele></ele><time>2013-8-23T1:23:19Z</time></trkpt>
<trkpt lat="45.396855203434825" lon="4.726096456870437"><ele></ele><time>2013-8-23T1:23:22Z</time></trkpt>
<trkpt lat="45.396764134056866" lon="4.725850028917193"><ele></ele><time>2013-8-23T1:23:25Z</time></trkpt>
<trkpt lat="45.396625539287925" lon="4.725677277892828"><ele></ele><time>2013-8-23T1:23:28Z</time></trkpt>
<trkpt lat="45.39650165475905" lon="4.7254803869873285"><ele></ele><time>2013-8-23T1:23:31Z</time></trkpt>
<trkpt lat="45.3963617188856" lon="4.725303361192346"><ele></ele><time>2013-8-23T1:23:34Z</time></trkpt>
<trkpt lat="45.39621017407626" lon="4.725148882716894"><ele></ele><time>2013-8-23T1:23:37Z</time></trkpt>
<trkpt lat="45.396063113585114" lon="4.724959786981344"><ele></ele><time>2013-8-23T1:23:40Z</time></trkpt>
<trkpt lat="45.395927117206156" lon="4.72476557828486"><ele></ele><time>2013-8-23T1:23:43Z</time></trkpt>
<trkpt lat="45.39579070173204" lon="4.724585954099894"><ele></ele><time>2013-8-23T1:23:46Z</time></trkpt>
<trkpt lat="45.395655166357756" lon="4.724397528916597"><ele></ele><time>2013-8-23T1:23:49Z</time></trkpt>
<trkpt lat="45.3955157333985" lon="4.724201979115605"><ele></ele><time>2013-8-23T1:23:52Z</time></trkpt>
<trkpt lat="45.39538552053273" lon="4.7239934373646975"><ele></ele><time>2013-8-23T1:23:55Z</time></trkpt>
<trkpt lat="45.39524709340185" lon="4.723794367164373"><ele></ele><time>2013-8-23T1:23:58Z</time></trkpt>
<trkpt lat="45.39512413088232" lon="4.723579622805119"><ele></ele><time>2013-8-23T1:24:1Z</time></trkpt>
<trkpt lat="45.39498733822256" lon="4.723363956436515"><ele></ele><time>2013-8-23T1:24:4Z</time></trkpt>
<trkpt lat="45.39485389832407" lon="4.723190870136023"><ele></ele><time>2013-8-23T1:24:7Z</time></trkpt>
<trkpt lat="45.39469992276281" lon="4.72301971167326"><ele></ele><time>2013-8-23T1:24:10Z</time></trkpt>
<trkpt lat="45.39457289502025" lon="4.722821982577443"><ele></ele><time>2013-8-23T1:24:13Z</time></trkpt>
<trkpt lat="45.39443777874112" lon="4.722624504938722"><ele></ele><time>2013-8-23T1:24:16Z</time></trkpt>
<trkpt lat="45.394147890619934" lon="4.722175402566791"><ele></ele><time>2013-8-23T1:24:19Z</time></trkpt>
<trkpt lat="45.393990562297404" lon="4.722012709826231"><ele></ele><time>2013-8-23T1:24:22Z</time></trkpt>
<trkpt lat="45.39383185096085" lon="4.721843060106039"><ele></ele><time>2013-8-23T1:24:25Z</time></trkpt>
<trkpt lat="45.39371001999825" lon="4.721636613830924"><ele></ele><time>2013-8-23T1:24:28Z</time></trkpt>
<trkpt lat="45.393594349734485" lon="4.721413655206561"><ele></ele><time>2013-8-23T1:24:31Z</time></trkpt>
<trkpt lat="45.393470004200935" lon="4.721203437075019"><ele></ele><time>2013-8-23T1:24:34Z</time></trkpt>
<trkpt lat="45.39335458539426" lon="4.721005707979202"><ele></ele><time>2013-8-23T1:24:37Z</time></trkpt>
<trkpt lat="45.393235269002616" lon="4.720782497897744"><ele></ele><time>2013-8-23T1:24:40Z</time></trkpt>
<trkpt lat="45.39310337975621" lon="4.720594072714448"><ele></ele><time>2013-8-23T1:24:43Z</time></trkpt>
<trkpt lat="45.39297580718994" lon="4.720384189859033"><ele></ele><time>2013-8-23T1:24:46Z</time></trkpt>
<trkpt lat="45.39282790850848" lon="4.7201707027852535"><ele></ele><time>2013-8-23T1:24:49Z</time></trkpt>
<trkpt lat="45.39273914415389" lon="4.7199309803545475"><ele></ele><time>2013-8-23T1:24:52Z</time></trkpt>
<trkpt lat="45.39264438673854" lon="4.719703663140535"><ele></ele><time>2013-8-23T1:24:55Z</time></trkpt>
<trkpt lat="45.392583827488124" lon="4.7194568160921335"><ele></ele><time>2013-8-23T1:24:58Z</time></trkpt>
<trkpt lat="45.39247255772352" lon="4.7192456759512424"><ele></ele><time>2013-8-23T1:25:1Z</time></trkpt>
<trkpt lat="45.39231820497662" lon="4.719066806137562"><ele></ele><time>2013-8-23T1:25:4Z</time></trkpt>
<trkpt lat="45.39221359882504" lon="4.718813169747591"><ele></ele><time>2013-8-23T1:25:7Z</time></trkpt>
<trkpt lat="45.39213979616761" lon="4.718559114262462"><ele></ele><time>2013-8-23T1:25:10Z</time></trkpt>
<trkpt lat="45.39207860827446" lon="4.718305813148618"><ele></ele><time>2013-8-23T1:25:13Z</time></trkpt>
<trkpt lat="45.391997513361275" lon="4.718054439872503"><ele></ele><time>2013-8-23T1:25:16Z</time></trkpt>
<trkpt lat="45.391907072626054" lon="4.717807425186038"><ele></ele><time>2013-8-23T1:25:19Z</time></trkpt>
<trkpt lat="45.39181566797197" lon="4.717559572309256"><ele></ele><time>2013-8-23T1:25:22Z</time></trkpt>
<trkpt lat="45.39173448923975" lon="4.717327980324626"><ele></ele><time>2013-8-23T1:25:25Z</time></trkpt>
<trkpt lat="45.391690358519554" lon="4.7170662973076105"><ele></ele><time>2013-8-23T1:25:28Z</time></trkpt>
<trkpt lat="45.391651005484164" lon="4.716802267357707"><ele></ele><time>2013-8-23T1:25:31Z</time></trkpt>
<trkpt lat="45.39161529857665" lon="4.716534465551376"><ele></ele><time>2013-8-23T1:25:34Z</time></trkpt>
<trkpt lat="45.391423855908215" lon="4.716580482199788"><ele></ele><time>2013-8-23T1:25:37Z</time></trkpt>
<trkpt lat="45.39133605547249" lon="4.716832358390093"><ele></ele><time>2013-8-23T1:25:40Z</time></trkpt>
<trkpt lat="45.39130248595029" lon="4.717109715566039"><ele></ele><time>2013-8-23T1:25:43Z</time></trkpt>
<trkpt lat="45.391274029389024" lon="4.71737558953464"><ele></ele><time>2013-8-23T1:25:46Z</time></trkpt>
<trkpt lat="45.39122235495597" lon="4.717647330835462"><ele></ele><time>2013-8-23T1:25:49Z</time></trkpt>
<trkpt lat="45.391112845391035" lon="4.71792234107852"><ele></ele><time>2013-8-23T1:25:52Z</time></trkpt>
<trkpt lat="45.39100626949221" lon="4.7181430365890265"><ele></ele><time>2013-8-23T1:25:55Z</time></trkpt>
<trkpt lat="45.39090991951525" lon="4.7183701023459435"><ele></ele><time>2013-8-23T1:25:58Z</time></trkpt>
<trkpt lat="45.39081444963813" lon="4.718646118417382"><ele></ele><time>2013-8-23T1:26:1Z</time></trkpt>
<trkpt lat="45.3907504118979" lon="4.718918362632394"><ele></ele><time>2013-8-23T1:26:4Z</time></trkpt>
<trkpt lat="45.390683356672525" lon="4.719211980700493"><ele></ele><time>2013-8-23T1:26:7Z</time></trkpt>
<trkpt lat="45.39066642522812" lon="4.71948011778295"><ele></ele><time>2013-8-23T1:26:10Z</time></trkpt>
<trkpt lat="45.39065875578672" lon="4.719746746122837"><ele></ele><time>2013-8-23T1:26:13Z</time></trkpt>
<trkpt lat="45.39064190816134" lon="4.720046315342188"><ele></ele><time>2013-8-23T1:26:16Z</time></trkpt>
<trkpt lat="45.39060045965016" lon="4.720367509871721"><ele></ele><time>2013-8-23T1:26:19Z</time></trkpt>
<trkpt lat="45.39056768640876" lon="4.720625588670373"><ele></ele><time>2013-8-23T1:26:22Z</time></trkpt>
<trkpt lat="45.39052778854966" lon="4.720896407961845"><ele></ele><time>2013-8-23T1:26:25Z</time></trkpt>
<trkpt lat="45.3904861304909" lon="4.721166389063001"><ele></ele><time>2013-8-23T1:26:28Z</time></trkpt>
<trkpt lat="45.39045603945851" lon="4.721429916098714"><ele></ele><time>2013-8-23T1:26:31Z</time></trkpt>
<trkpt lat="45.39040591567755" lon="4.721676260232925"><ele></ele><time>2013-8-23T1:26:34Z</time></trkpt>
<trkpt lat="45.39034611079842" lon="4.721938110888004"><ele></ele><time>2013-8-23T1:26:37Z</time></trkpt>
<trkpt lat="45.390300513245165" lon="4.72218805924058"><ele></ele><time>2013-8-23T1:26:40Z</time></trkpt>
<trkpt lat="45.390250347554684" lon="4.722466673702002"><ele></ele><time>2013-8-23T1:26:43Z</time></trkpt>
<trkpt lat="45.39018048439175" lon="4.722712934017181"><ele></ele><time>2013-8-23T1:26:46Z</time></trkpt>
<trkpt lat="45.39011569228023" lon="4.722990710288286"><ele></ele><time>2013-8-23T1:26:49Z</time></trkpt>
<trkpt lat="45.390042811632156" lon="4.723243759945035"><ele></ele><time>2013-8-23T1:26:52Z</time></trkpt>
<trkpt lat="45.389962387271225" lon="4.723489014431834"><ele></ele><time>2013-8-23T1:26:55Z</time></trkpt>
<trkpt lat="45.3898737905547" lon="4.723741058260202"><ele></ele><time>2013-8-23T1:26:58Z</time></trkpt>
<trkpt lat="45.38977232761681" lon="4.723989916965365"><ele></ele><time>2013-8-23T1:27:1Z</time></trkpt>
<trkpt lat="45.38966956548393" lon="4.724238188937306"><ele></ele><time>2013-8-23T1:27:4Z</time></trkpt>
<trkpt lat="45.3895312640816" lon="4.724467685446143"><ele></ele><time>2013-8-23T1:27:7Z</time></trkpt>
<trkpt lat="45.389389651827514" lon="4.724685782566667"><ele></ele><time>2013-8-23T1:27:10Z</time></trkpt>
<trkpt lat="45.38923613727093" lon="4.724936988204718"><ele></ele><time>2013-8-23T1:27:13Z</time></trkpt>
<trkpt lat="45.389107475057244" lon="4.725149050354958"><ele></ele><time>2013-8-23T1:27:16Z</time></trkpt>
<trkpt lat="45.388965317979455" lon="4.725336050614715"><ele></ele><time>2013-8-23T1:27:19Z</time></trkpt>
<trkpt lat="45.38883225526661" lon="4.725562445819378"><ele></ele><time>2013-8-23T1:27:22Z</time></trkpt>
<trkpt lat="45.38874533493072" lon="4.725804850459099"><ele></ele><time>2013-8-23T1:27:25Z</time></trkpt>
<trkpt lat="45.38864827249199" lon="4.726023785769939"><ele></ele><time>2013-8-23T1:27:28Z</time></trkpt>
<trkpt lat="45.38852727971971" lon="4.7262210957705975"><ele></ele><time>2013-8-23T1:27:31Z</time></trkpt>
<trkpt lat="45.3884587995708" lon="4.7264596447348595"><ele></ele><time>2013-8-23T1:27:34Z</time></trkpt>
<trkpt lat="45.38827251177281" lon="4.726541116833687"><ele></ele><time>2013-8-23T1:27:37Z</time></trkpt>
<trkpt lat="45.388097246177495" lon="4.726600544527173"><ele></ele><time>2013-8-23T1:27:40Z</time></trkpt>
<trkpt lat="45.38796950597316" lon="4.726784527301788"><ele></ele><time>2013-8-23T1:27:43Z</time></trkpt>
<trkpt lat="45.38783493451774" lon="4.726976053789258"><ele></ele><time>2013-8-23T1:27:46Z</time></trkpt>
<trkpt lat="45.387695878744125" lon="4.7271879483014345"><ele></ele><time>2013-8-23T1:27:49Z</time></trkpt>
<trkpt lat="45.38756591733545" lon="4.727466143667698"><ele></ele><time>2013-8-23T1:27:52Z</time></trkpt>
<trkpt lat="45.38743905723095" lon="4.727747356519103"><ele></ele><time>2013-8-23T1:27:55Z</time></trkpt>
<trkpt lat="45.387309095822275" lon="4.728030664846301"><ele></ele><time>2013-8-23T1:27:58Z</time></trkpt>
<trkpt lat="45.38717800285667" lon="4.728305675089359"><ele></ele><time>2013-8-23T1:28:1Z</time></trkpt>
<trkpt lat="45.387063841335475" lon="4.728539865463972"><ele></ele><time>2013-8-23T1:28:4Z</time></trkpt>
<trkpt lat="45.386939202435315" lon="4.728780509904027"><ele></ele><time>2013-8-23T1:28:7Z</time></trkpt>
<trkpt lat="45.38682298734784" lon="4.728976730257273"><ele></ele><time>2013-8-23T1:28:10Z</time></trkpt>
<trkpt lat="45.38671372924" lon="4.729185104370117"><ele></ele><time>2013-8-23T1:28:13Z</time></trkpt>
<trkpt lat="45.38662291131914" lon="4.729408482089639"><ele></ele><time>2013-8-23T1:28:16Z</time></trkpt>
<trkpt lat="45.38648813031614" lon="4.729686342179775"><ele></ele><time>2013-8-23T1:28:19Z</time></trkpt>
<trkpt lat="45.3863950073719" lon="4.729924304410815"><ele></ele><time>2013-8-23T1:28:22Z</time></trkpt>
<trkpt lat="45.386227746494114" lon="4.730060761794448"><ele></ele><time>2013-8-23T1:28:25Z</time></trkpt>
<trkpt lat="45.3860368905589" lon="4.73004718311131"><ele></ele><time>2013-8-23T1:28:28Z</time></trkpt>
<trkpt lat="45.38585445843637" lon="4.7299734223634005"><ele></ele><time>2013-8-23T1:28:31Z</time></trkpt>
<trkpt lat="45.385664398781955" lon="4.7299460135400295"><ele></ele><time>2013-8-23T1:28:34Z</time></trkpt>
<trkpt lat="45.385488043539226" lon="4.730027234181762"><ele></ele><time>2013-8-23T1:28:37Z</time></trkpt>
<trkpt lat="45.385308670811355" lon="4.730133935809135"><ele></ele><time>2013-8-23T1:28:40Z</time></trkpt>
<trkpt lat="45.385148702189326" lon="4.730341304093599"><ele></ele><time>2013-8-23T1:28:43Z</time></trkpt>
<trkpt lat="45.38496606051922" lon="4.730437360703945"><ele></ele><time>2013-8-23T1:28:46Z</time></trkpt>
<trkpt lat="45.384800476022065" lon="4.730640202760696"><ele></ele><time>2013-8-23T1:28:49Z</time></trkpt>
<trkpt lat="45.38467256817967" lon="4.730836758390069"><ele></ele><time>2013-8-23T1:28:52Z</time></trkpt>
<trkpt lat="45.38450425956398" lon="4.730974640697241"><ele></ele><time>2013-8-23T1:28:55Z</time></trkpt>
<trkpt lat="45.38436696399003" lon="4.731171615421772"><ele></ele><time>2013-8-23T1:28:58Z</time></trkpt>
<trkpt lat="45.384248066693544" lon="4.731387030333281"><ele></ele><time>2013-8-23T1:29:1Z</time></trkpt>
<trkpt lat="45.384070705622435" lon="4.731337912380695"><ele></ele><time>2013-8-23T1:29:4Z</time></trkpt>
<trkpt lat="45.383920166641474" lon="4.731147224083543"><ele></ele><time>2013-8-23T1:29:7Z</time></trkpt>
<trkpt lat="45.383981857448816" lon="4.730882523581386"><ele></ele><time>2013-8-23T1:29:10Z</time></trkpt>
<trkpt lat="45.38416609168053" lon="4.730850337073207"><ele></ele><time>2013-8-23T1:29:13Z</time></trkpt>
<trkpt lat="45.38428243249655" lon="4.73063743673265"><ele></ele><time>2013-8-23T1:29:16Z</time></trkpt>
<trkpt lat="45.38429751992226" lon="4.7303633484989405"><ele></ele><time>2013-8-23T1:29:19Z</time></trkpt>
<trkpt lat="45.384334861300886" lon="4.730075765401125"><ele></ele><time>2013-8-23T1:29:22Z</time></trkpt>
<trkpt lat="45.38443712051958" lon="4.729845095425844"><ele></ele><time>2013-8-23T1:29:25Z</time></trkpt>
<trkpt lat="45.384544995613396" lon="4.729591375216842"><ele></ele><time>2013-8-23T1:29:28Z</time></trkpt>
<trkpt lat="45.38466305471957" lon="4.729335140436888"><ele></ele><time>2013-8-23T1:29:31Z</time></trkpt>
<trkpt lat="45.384632628411055" lon="4.729602187871933"><ele></ele><time>2013-8-23T1:29:34Z</time></trkpt>
<trkpt lat="45.38456653710455" lon="4.729862613603473"><ele></ele><time>2013-8-23T1:29:37Z</time></trkpt>
<trkpt lat="45.38445539306849" lon="4.730088338255882"><ele></ele><time>2013-8-23T1:29:40Z</time></trkpt>
<trkpt lat="45.384393157437444" lon="4.730330742895603"><ele></ele><time>2013-8-23T1:29:43Z</time></trkpt>
<trkpt lat="45.38437350187451" lon="4.73064573481679"><ele></ele><time>2013-8-23T1:29:46Z</time></trkpt>
<trkpt lat="45.384288844652474" lon="4.7308743093162775"><ele></ele><time>2013-8-23T1:29:49Z</time></trkpt>
<trkpt lat="45.38410243112594" lon="4.730910016223788"><ele></ele><time>2013-8-23T1:29:52Z</time></trkpt>
<trkpt lat="45.38403554353863" lon="4.731151079759002"><ele></ele><time>2013-8-23T1:29:55Z</time></trkpt>
<trkpt lat="45.38434860762209" lon="4.731393987312913"><ele></ele><time>2013-8-23T1:29:58Z</time></trkpt>
<trkpt lat="45.384440179914236" lon="4.731155941262841"><ele></ele><time>2013-8-23T1:30:1Z</time></trkpt>
<trkpt lat="45.38463510107249" lon="4.730960810557008"><ele></ele><time>2013-8-23T1:30:4Z</time></trkpt>
<trkpt lat="45.3848402062431" lon="4.730950416997075"><ele></ele><time>2013-8-23T1:30:7Z</time></trkpt>
<trkpt lat="45.38503667805344" lon="4.730991907417774"><ele></ele><time>2013-8-23T1:30:10Z</time></trkpt>
<trkpt lat="45.38522170856595" lon="4.731013868004084"><ele></ele><time>2013-8-23T1:30:13Z</time></trkpt>
<trkpt lat="45.38542589172721" lon="4.731040857732296"><ele></ele><time>2013-8-23T1:30:16Z</time></trkpt>
<trkpt lat="45.38560597691685" lon="4.731044126674533"><ele></ele><time>2013-8-23T1:30:19Z</time></trkpt>
<trkpt lat="45.385804418474436" lon="4.731087880209088"><ele></ele><time>2013-8-23T1:30:22Z</time></trkpt>
<trkpt lat="45.385748888365924" lon="4.7314338851720095"><ele></ele><time>2013-8-23T1:30:25Z</time></trkpt>
<trkpt lat="45.38577612955123" lon="4.731709146872163"><ele></ele><time>2013-8-23T1:30:28Z</time></trkpt>
<trkpt lat="45.38571959361434" lon="4.731959095224738"><ele></ele><time>2013-8-23T1:30:31Z</time></trkpt>
<trkpt lat="45.38569918368012" lon="4.732237374410033"><ele></ele><time>2013-8-23T1:30:34Z</time></trkpt>
<trkpt lat="45.38551855366677" lon="4.732193369418383"><ele></ele><time>2013-8-23T1:30:37Z</time></trkpt>
<trkpt lat="45.38533037994057" lon="4.732105191797018"><ele></ele><time>2013-8-23T1:30:40Z</time></trkpt>
<trkpt lat="45.38515268359333" lon="4.732147352769971"><ele></ele><time>2013-8-23T1:30:43Z</time></trkpt>
<trkpt lat="45.38496086373925" lon="4.732207115739584"><ele></ele><time>2013-8-23T1:30:46Z</time></trkpt>
<trkpt lat="45.38478890899569" lon="4.732313230633736"><ele></ele><time>2013-8-23T1:30:49Z</time></trkpt>
<trkpt lat="45.384605303406715" lon="4.732449855655432"><ele></ele><time>2013-8-23T1:30:52Z</time></trkpt>
<trkpt lat="45.38440887350589" lon="4.732343824580312"><ele></ele><time>2013-8-23T1:30:55Z</time></trkpt>
<trkpt lat="45.384244420565665" lon="4.7321972250938416"><ele></ele><time>2013-8-23T1:30:58Z</time></trkpt>
<trkpt lat="45.384116847999394" lon="4.732016930356622"><ele></ele><time>2013-8-23T1:31:1Z</time></trkpt>
<trkpt lat="45.383980558253825" lon="4.7318117413669825"><ele></ele><time>2013-8-23T1:31:4Z</time></trkpt>
<trkpt lat="45.38382955826819" lon="4.731639577075839"><ele></ele><time>2013-8-23T1:31:7Z</time></trkpt>
<trkpt lat="45.383679270744324" lon="4.7314827516674995"><ele></ele><time>2013-8-23T1:31:10Z</time></trkpt>
<trkpt lat="45.38356204982847" lon="4.731262642890215"><ele></ele><time>2013-8-23T1:31:13Z</time></trkpt>
<trkpt lat="45.38357814308256" lon="4.73099559545517"><ele></ele><time>2013-8-23T1:31:16Z</time></trkpt>
<trkpt lat="45.38361041340977" lon="4.7307046595960855"><ele></ele><time>2013-8-23T1:31:19Z</time></trkpt>
<trkpt lat="45.38364846725017" lon="4.730443060398102"><ele></ele><time>2013-8-23T1:31:22Z</time></trkpt>
<trkpt lat="45.38377029821277" lon="4.730251617729664"><ele></ele><time>2013-8-23T1:31:25Z</time></trkpt>
<trkpt lat="45.38379594683647" lon="4.729959173128009"><ele></ele><time>2013-8-23T1:31:28Z</time></trkpt>
<trkpt lat="45.38380353245884" lon="4.729675026610494"><ele></ele><time>2013-8-23T1:31:31Z</time></trkpt>
<trkpt lat="45.3838953981176" lon="4.729455253109336"><ele></ele><time>2013-8-23T1:31:34Z</time></trkpt>
<trkpt lat="45.3838375210762" lon="4.729151241481304"><ele></ele><time>2013-8-23T1:31:37Z</time></trkpt>
<trkpt lat="45.38372331764549" lon="4.728919146582484"><ele></ele><time>2013-8-23T1:31:40Z</time></trkpt>
<trkpt lat="45.383605090901256" lon="4.728692751377821"><ele></ele><time>2013-8-23T1:31:43Z</time></trkpt>
<trkpt lat="45.38342990912497" lon="4.7287877183407545"><ele></ele><time>2013-8-23T1:31:46Z</time></trkpt>
<trkpt lat="45.383493402041495" lon="4.729052921757102"><ele></ele><time>2013-8-23T1:31:49Z</time></trkpt>
<trkpt lat="45.38345295935869" lon="4.72930739633739"><ele></ele><time>2013-8-23T1:31:52Z</time></trkpt>
<trkpt lat="45.38331612478942" lon="4.729512920603156"><ele></ele><time>2013-8-23T1:31:55Z</time></trkpt>
<trkpt lat="45.3832082496956" lon="4.729727748781443"><ele></ele><time>2013-8-23T1:31:58Z</time></trkpt>
<trkpt lat="45.383197353221476" lon="4.7299866657704115"><ele></ele><time>2013-8-23T1:32:1Z</time></trkpt>
<trkpt lat="45.38302644621581" lon="4.730120440945029"><ele></ele><time>2013-8-23T1:32:4Z</time></trkpt>
<trkpt lat="45.38317002821714" lon="4.729948611930013"><ele></ele><time>2013-8-23T1:32:7Z</time></trkpt>
<trkpt lat="45.383243495598435" lon="4.729698747396469"><ele></ele><time>2013-8-23T1:32:10Z</time></trkpt>
<trkpt lat="45.38325879257172" lon="4.7294288501143456"><ele></ele><time>2013-8-23T1:32:13Z</time></trkpt>
<trkpt lat="45.383402039296925" lon="4.729245956987143"><ele></ele><time>2013-8-23T1:32:16Z</time></trkpt>
<trkpt lat="45.38347466848791" lon="4.72899760119617"><ele></ele><time>2013-8-23T1:32:19Z</time></trkpt>
<trkpt lat="45.38339663296938" lon="4.728764416649938"><ele></ele><time>2013-8-23T1:32:22Z</time></trkpt>
<trkpt lat="45.38326742593199" lon="4.72858571447432"><ele></ele><time>2013-8-23T1:32:25Z</time></trkpt>
<trkpt lat="45.38315691053867" lon="4.728366695344448"><ele></ele><time>2013-8-23T1:32:28Z</time></trkpt>
<trkpt lat="45.383101548068225" lon="4.72806922160089"><ele></ele><time>2013-8-23T1:32:31Z</time></trkpt>
<trkpt lat="45.38318004459143" lon="4.7278165910393"><ele></ele><time>2013-8-23T1:32:34Z</time></trkpt>
<trkpt lat="45.383127741515636" lon="4.727572174742818"><ele></ele><time>2013-8-23T1:32:37Z</time></trkpt>
<trkpt lat="45.38322354666889" lon="4.727343851700425"><ele></ele><time>2013-8-23T1:32:40Z</time></trkpt>
<trkpt lat="45.38341918028891" lon="4.727248549461365"><ele></ele><time>2013-8-23T1:32:43Z</time></trkpt>
<trkpt lat="45.383439674042165" lon="4.726941185072064"><ele></ele><time>2013-8-23T1:32:46Z</time></trkpt>
<trkpt lat="45.38357143756002" lon="4.726752424612641"><ele></ele><time>2013-8-23T1:32:49Z</time></trkpt>
<trkpt lat="45.38371703121811" lon="4.726597443223"><ele></ele><time>2013-8-23T1:32:52Z</time></trkpt>
<trkpt lat="45.383902355097234" lon="4.726477582007647"><ele></ele><time>2013-8-23T1:32:55Z</time></trkpt>
<trkpt lat="45.38408210501075" lon="4.726336011663079"><ele></ele><time>2013-8-23T1:32:58Z</time></trkpt>
<trkpt lat="45.38426449522376" lon="4.726174827665091"><ele></ele><time>2013-8-23T1:33:1Z</time></trkpt>
<trkpt lat="45.38445681799203" lon="4.726083967834711"><ele></ele><time>2013-8-23T1:33:4Z</time></trkpt>
<trkpt lat="45.38462902419269" lon="4.725923119112849"><ele></ele><time>2013-8-23T1:33:7Z</time></trkpt>
<trkpt lat="45.38480931892991" lon="4.725763192400336"><ele></ele><time>2013-8-23T1:33:10Z</time></trkpt>
<trkpt lat="45.384998582303524" lon="4.725604271516204"><ele></ele><time>2013-8-23T1:33:13Z</time></trkpt>
<trkpt lat="45.38517736829817" lon="4.725404866039753"><ele></ele><time>2013-8-23T1:33:16Z</time></trkpt>
<trkpt lat="45.38532824255526" lon="4.7251661494374275"><ele></ele><time>2013-8-23T1:33:19Z</time></trkpt>
<trkpt lat="45.3853745944798" lon="4.7249161172658205"><ele></ele><time>2013-8-23T1:33:22Z</time></trkpt>
<trkpt lat="45.38541960529983" lon="4.724661977961659"><ele></ele><time>2013-8-23T1:33:25Z</time></trkpt>
</trkseg></trk></gpx>